Observation data for Hackberry on 07/21/2019      Previous  Date  Next       Current Mesonet Observations  Soil Data  Daily Summary Page  Observations in Plain Language
KHA3 210500Z 14013KT 30/17 A2986 RMK A01 T03010174  RH  047%=      5-min Rain = 0
KHA3 210501Z 14012KT 30/17 A2986 RMK A01 T03010173  RH  046%=      5-min Rain = 0
KHA3 210502Z 14013KT 30/17 A2986 RMK A01 T03010174  RH  046%=      5-min Rain = 0
KHA3 210503Z 14011KT 30/17 A2986 RMK A01 T03010173  RH  046%=      5-min Rain = 0
KHA3 210504Z 14011KT 30/17 A2986 RMK A01 T03010174  RH  046%=      5-min Rain = 0
KHA3 210505Z 15013KT 30/17 A2986 RMK A01 T03000174  RH  047%=      5-min Rain = 0
KHA3 210506Z 15011KT 30/17 A2986 RMK A01 T03000173  RH  047%=      5-min Rain = 0
KHA3 210507Z 15011KT 30/17 A2986 RMK A01 T02990174  RH  047%=      5-min Rain = 0
KHA3 210508Z 14011KT 30/17 A2986 RMK A01 T02980173  RH  047%=      5-min Rain = 0
KHA3 210509Z 15013KT 30/17 A2986 RMK A01 T02980173  RH  047%=      5-min Rain = 0
KHA3 210510Z 15010G15KT 30/17 A2986 RMK A01 T02980173  RH  047%=      5-min Rain = 0
KHA3 210511Z 15012KT 30/17 A2987 RMK A01 T02980173  RH  047%=      5-min Rain = 0
KHA3 210512Z 14011KT 30/17 A2987 RMK A01 T02980173  RH  047%=      5-min Rain = 0
KHA3 210513Z 15011KT 30/17 A2987 RMK A01 T02980173  RH  047%=      5-min Rain = 0
KHA3 210514Z 15013KT 30/17 A2987 RMK A01 T02980172  RH  047%=      5-min Rain = 0
KHA3 210515Z 15014KT 30/17 A2987 RMK A01 T02980172  RH  047%=      5-min Rain = 0
KHA3 210516Z 15012KT 30/17 A2987 RMK A01 T02990172  RH  046%=      5-min Rain = 0
KHA3 210517Z 15013KT 30/17 A2987 RMK A01 T02990172  RH  046%=      5-min Rain = 0
KHA3 210518Z 15013KT 30/17 A2987 RMK A01 T02990172  RH  047%=      5-min Rain = 0
KHA3 210519Z 15011KT 30/17 A2987 RMK A01 T02990172  RH  047%=      5-min Rain = 0
KHA3 210520Z 15012KT 30/17 A2987 RMK A01 T02980172  RH  047%=      5-min Rain = 0
KHA3 210521Z 15014KT 30/17 A2987 RMK A01 T02980172  RH  047%=      5-min Rain = 0
KHA3 210522Z 15013KT 30/17 A2987 RMK A01 T02980172  RH  047%=      5-min Rain = 0
KHA3 210523Z 15013KT 30/17 A2986 RMK A01 T02980172  RH  047%=      5-min Rain = 0
KHA3 210524Z 15013KT 30/17 A2986 RMK A01 T02980172  RH  047%=      5-min Rain = 0
KHA3 210525Z 15013KT 30/17 A2986 RMK A01 T02990172  RH  047%=      5-min Rain = 0
KHA3 210526Z 15014KT 30/17 A2986 RMK A01 T02980172  RH  047%=      5-min Rain = 0
KHA3 210527Z 15013KT 30/17 A2986 RMK A01 T02980172  RH  047%=      5-min Rain = 0
KHA3 210528Z 15014KT 30/17 A2986 RMK A01 T02980171  RH  047%=      5-min Rain = 0
KHA3 210529Z 15013KT 30/17 A2986 RMK A01 T02980171  RH  047%=      5-min Rain = 0
KHA3 210530Z 15013KT 30/17 A2986 RMK A01 T02980172  RH  047%=      5-min Rain = 0
KHA3 210531Z 15014KT 30/17 A2986 RMK A01 T02980172  RH  047%=      5-min Rain = 0
KHA3 210532Z 15014KT 30/17 A2986 RMK A01 T02980172  RH  047%=      5-min Rain = 0
KHA3 210533Z 15013KT 30/17 A2986 RMK A01 T02980172  RH  047%=      5-min Rain = 0
KHA3 210534Z 15014G19KT 30/17 A2986 RMK A01 T02970172  RH  047%=      5-min Rain = 0
KHA3 210535Z 15013KT 30/17 A2986 RMK A01 T02970172  RH  047%=      5-min Rain = 0
KHA3 210536Z 15014KT 30/17 A2986 RMK A01 T02960172  RH  047%=      5-min Rain = 0
KHA3 210537Z 15012KT 30/17 A2986 RMK A01 T02960172  RH  047%=      5-min Rain = 0
KHA3 210538Z 15014KT 30/17 A2986 RMK A01 T02950171  RH  047%=      5-min Rain = 0
KHA3 210539Z 15014KT 30/17 A2986 RMK A01 T02950171  RH  047%=      5-min Rain = 0
KHA3 210540Z 15015KT 30/17 A2986 RMK A01 T02950171  RH  047%=      5-min Rain = 0
KHA3 210541Z 16014KT 30/17 A2986 RMK A01 T02950171  RH  047%=      5-min Rain = 0
KHA3 210542Z 15014KT 30/17 A2986 RMK A01 T02960172  RH  047%=      5-min Rain = 0
KHA3 210543Z 16013KT 30/17 A2986 RMK A01 T02960172  RH  047%=      5-min Rain = 0
KHA3 210544Z 16012KT 30/17 A2986 RMK A01 T02960171  RH  047%=      5-min Rain = 0
KHA3 210545Z 16013KT 30/17 A2986 RMK A01 T02950171  RH  047%=      5-min Rain = 0
KHA3 210546Z 16012KT 30/17 A2986 RMK A01 T02950171  RH  047%=      5-min Rain = 0
KHA3 210547Z 16011KT 30/17 A2986 RMK A01 T02950171  RH  047%=      5-min Rain = 0
KHA3 210548Z 16014KT 29/17 A2986 RMK A01 T02940172  RH  048%=      5-min Rain = 0
KHA3 210549Z 16012KT 29/17 A2986 RMK A01 T02940171  RH  047%=      5-min Rain = 0
KHA3 210550Z 16013G18KT 29/17 A2986 RMK A01 T02940171  RH  047%=      5-min Rain = 0
KHA3 210551Z 16014G19KT 29/17 A2986 RMK A01 T02940171  RH  047%=      5-min Rain = 0
KHA3 210552Z 16012KT 30/17 A2986 RMK A01 T02950171  RH  047%=      5-min Rain = 0
KHA3 210553Z 16014KT 30/17 A2986 RMK A01 T02950171  RH  047%=      5-min Rain = 0
KHA3 210554Z 16014KT 30/17 A2986 RMK A01 T02950171  RH  047%=      5-min Rain = 0
KHA3 210555Z 16014KT 30/17 A2986 RMK A01 T02950171  RH  047%=      5-min Rain = 0
KHA3 210556Z 16014KT 29/17 A2986 RMK A01 T02940171  RH  047%=      5-min Rain = 0
KHA3 210557Z 16013KT 29/17 A2986 RMK A01 T02940171  RH  048%=      5-min Rain = 0
KHA3 210558Z 16013KT 29/17 A2986 RMK A01 T02930171  RH  048%=      5-min Rain = 0
KHA3 210559Z 16014KT 29/17 A2986 RMK A01 T02930171  RH  048%=      5-min Rain = 0
KHA3 210600Z 16014KT 29/17 A2986 RMK A01 T02930171  RH  048%=      5-min Rain = 0
KHA3 210601Z 16012KT 29/17 A2986 RMK A01 T02930171  RH  048%=      5-min Rain = 0
KHA3 210602Z 16014KT 29/17 A2986 RMK A01 T02930171  RH  048%=      5-min Rain = 0
KHA3 210603Z 16014KT 29/17 A2986 RMK A01 T02920171  RH  048%=      5-min Rain = 0
KHA3 210604Z 16014KT 29/17 A2986 RMK A01 T02920171  RH  048%=      5-min Rain = 0
KHA3 210605Z 16013KT 29/17 A2986 RMK A01 T02920171  RH  048%=      5-min Rain = 0
KHA3 210606Z 16013KT 29/17 A2986 RMK A01 T02920171  RH  048%=      5-min Rain = 0
KHA3 210607Z 17013KT 29/17 A2986 RMK A01 T02910171  RH  048%=      5-min Rain = 0
KHA3 210608Z 17014KT 29/17 A2986 RMK A01 T02910171  RH  048%=      5-min Rain = 0
KHA3 210609Z 17013KT 29/17 A2986 RMK A01 T02910171  RH  048%=      5-min Rain = 0
KHA3 210610Z 17012KT 29/17 A2986 RMK A01 T02910171  RH  048%=      5-min Rain = 0
KHA3 210611Z 16012KT 29/17 A2986 RMK A01 T02900171  RH  049%=      5-min Rain = 0
KHA3 210612Z 16014KT 29/17 A2986 RMK A01 T02900171  RH  049%=      5-min Rain = 0
KHA3 210613Z 16011KT 29/17 A2986 RMK A01 T02890171  RH  049%=      5-min Rain = 0
KHA3 210614Z 17012KT 29/17 A2986 RMK A01 T02890171  RH  049%=      5-min Rain = 0
KHA3 210615Z 17012G18KT 29/17 A2986 RMK A01 T02880171  RH  049%=      5-min Rain = 0
KHA3 210616Z 17013KT 29/17 A2986 RMK A01 T02880171  RH  049%=      5-min Rain = 0
KHA3 210617Z 17012KT 29/17 A2986 RMK A01 T02870171  RH  049%=      5-min Rain = 0
KHA3 210618Z 17012KT 29/17 A2986 RMK A01 T02880171  RH  049%=      5-min Rain = 0
KHA3 210619Z 17012KT 29/17 A2986 RMK A01 T02870171  RH  049%=      5-min Rain = 0
KHA3 210620Z 17012KT 29/17 A2986 RMK A01 T02870171  RH  049%=      5-min Rain = 0
KHA3 210621Z 17013KT 29/17 A2986 RMK A01 T02870171  RH  050%=      5-min Rain = 0
KHA3 210622Z 17012KT 29/17 A2986 RMK A01 T02860170  RH  049%=      5-min Rain = 0
KHA3 210623Z 17012KT 29/17 A2986 RMK A01 T02860171  RH  050%=      5-min Rain = 0
KHA3 210624Z 17014KT 29/17 A2986 RMK A01 T02870171  RH  050%=      5-min Rain = 0
KHA3 210625Z 17012KT 29/17 A2986 RMK A01 T02870171  RH  050%=      5-min Rain = 0
KHA3 210626Z 17013KT 29/17 A2986 RMK A01 T02870171  RH  050%=      5-min Rain = 0
KHA3 210627Z 17011KT 29/17 A2986 RMK A01 T02860171  RH  050%=      5-min Rain = 0
KHA3 210628Z 17012KT 29/17 A2986 RMK A01 T02860171  RH  050%=      5-min Rain = 0
KHA3 210629Z 17013KT 29/17 A2986 RMK A01 T02860171  RH  050%=      5-min Rain = 0
KHA3 210630Z 17012KT 29/17 A2986 RMK A01 T02860171  RH  050%=      5-min Rain = 0
KHA3 210631Z 17012KT 29/17 A2986 RMK A01 T02860171  RH  050%=      5-min Rain = 0
KHA3 210632Z 17013KT 29/17 A2986 RMK A01 T02860171  RH  050%=      5-min Rain = 0
KHA3 210633Z 17013KT 29/17 A2986 RMK A01 T02860170  RH  050%=      5-min Rain = 0
KHA3 210634Z 18013KT 29/17 A2986 RMK A01 T02860170  RH  050%=      5-min Rain = 0
KHA3 210635Z 17012KT 29/17 A2986 RMK A01 T02860171  RH  050%=      5-min Rain = 0
KHA3 210636Z 17013KT 29/17 A2986 RMK A01 T02860170  RH  049%=      5-min Rain = 0
KHA3 210637Z 18011KT 29/17 A2986 RMK A01 T02870170  RH  049%=      5-min Rain = 0
KHA3 210638Z 17013KT 29/17 A2986 RMK A01 T02870171  RH  050%=      5-min Rain = 0
KHA3 210639Z 17012KT 29/17 A2986 RMK A01 T02860170  RH  049%=      5-min Rain = 0
KHA3 210640Z 17014KT 29/17 A2986 RMK A01 T02860170  RH  049%=      5-min Rain = 0
KHA3 210641Z 17014KT 29/17 A2986 RMK A01 T02870170  RH  049%=      5-min Rain = 0
KHA3 210642Z 18012KT 29/17 A2986 RMK A01 T02870170  RH  049%=      5-min Rain = 0
KHA3 210643Z 18014KT 29/17 A2986 RMK A01 T02870170  RH  049%=      5-min Rain = 0
KHA3 210644Z 17012G17KT 29/17 A2986 RMK A01 T02880170  RH  049%=      5-min Rain = 0
KHA3 210645Z 17013KT 29/17 A2986 RMK A01 T02880170  RH  049%=      5-min Rain = 0
KHA3 210646Z 17015KT 29/17 A2986 RMK A01 T02870169  RH  049%=      5-min Rain = 0
KHA3 210647Z 18013KT 29/17 A2986 RMK A01 T02880169  RH  049%=      5-min Rain = 0
KHA3 210648Z 17013KT 29/17 A2986 RMK A01 T02880170  RH  049%=      5-min Rain = 0
KHA3 210649Z 17013KT 29/17 A2986 RMK A01 T02880170  RH  049%=      5-min Rain = 0
KHA3 210650Z 17014KT 29/17 A2986 RMK A01 T02880170  RH  049%=      5-min Rain = 0
KHA3 210651Z 17013KT 29/17 A2986 RMK A01 T02870170  RH  049%=      5-min Rain = 0
KHA3 210652Z 17012KT 29/17 A2986 RMK A01 T02870170  RH  049%=      5-min Rain = 0
KHA3 210653Z 17012KT 29/17 A2986 RMK A01 T02860170  RH  049%=      5-min Rain = 0
KHA3 210654Z 17014KT 29/17 A2986 RMK A01 T02860170  RH  050%=      5-min Rain = 0
KHA3 210655Z 17012KT 29/17 A2986 RMK A01 T02850169  RH  049%=      5-min Rain = 0
KHA3 210656Z 17014KT 29/17 A2986 RMK A01 T02850170  RH  049%=      5-min Rain = 0
KHA3 210657Z 17012KT 29/17 A2986 RMK A01 T02850169  RH  049%=      5-min Rain = 0
KHA3 210658Z 17014KT 29/17 A2986 RMK A01 T02850169  RH  049%=      5-min Rain = 0
KHA3 210659Z 17013KT 29/17 A2986 RMK A01 T02850169  RH  049%=      5-min Rain = 0
KHA3 210700Z 17012KT 29/17 A2986 RMK A01 T02850169  RH  049%=      5-min Rain = 0
KHA3 210701Z 17013KT 29/17 A2986 RMK A01 T02850169  RH  049%=      5-min Rain = 0
KHA3 210702Z 17012KT 29/17 A2986 RMK A01 T02850169  RH  050%=      5-min Rain = 0
KHA3 210703Z 17013KT 28/17 A2986 RMK A01 T02840169  RH  050%=      5-min Rain = 0
KHA3 210704Z 17014KT 28/17 A2986 RMK A01 T02840169  RH  050%=      5-min Rain = 0
KHA3 210705Z 17012KT 28/17 A2986 RMK A01 T02840170  RH  050%=      5-min Rain = 0
KHA3 210706Z 17014KT 28/17 A2986 RMK A01 T02830169  RH  050%=      5-min Rain = 0
KHA3 210707Z 17013KT 28/17 A2986 RMK A01 T02830169  RH  050%=      5-min Rain = 0
KHA3 210708Z 17012KT 28/17 A2986 RMK A01 T02830169  RH  050%=      5-min Rain = 0
KHA3 210709Z 17012KT 28/17 A2986 RMK A01 T02830169  RH  050%=      5-min Rain = 0
KHA3 210710Z 17012KT 28/17 A2986 RMK A01 T02830169  RH  050%=      5-min Rain = 0
KHA3 210711Z 17012KT 28/17 A2986 RMK A01 T02820169  RH  050%=      5-min Rain = 0
KHA3 210712Z 17012KT 28/17 A2986 RMK A01 T02820169  RH  050%=      5-min Rain = 0
KHA3 210713Z 17012KT 28/17 A2986 RMK A01 T02830169  RH  050%=      5-min Rain = 0
KHA3 210714Z 17011KT 28/17 A2986 RMK A01 T02820169  RH  050%=      5-min Rain = 0
KHA3 210715Z 17011KT 28/17 A2986 RMK A01 T02820169  RH  050%=      5-min Rain = 0
KHA3 210716Z 17012KT 28/17 A2986 RMK A01 T02810169  RH  051%=      5-min Rain = 0
KHA3 210717Z 17012KT 28/17 A2986 RMK A01 T02810169  RH  051%=      5-min Rain = 0
KHA3 210718Z 17012KT 28/17 A2986 RMK A01 T02810169  RH  051%=      5-min Rain = 0
KHA3 210719Z 17012KT 28/17 A2986 RMK A01 T02800169  RH  051%=      5-min Rain = 0
KHA3 210720Z 17013KT 28/17 A2986 RMK A01 T02800169  RH  051%=      5-min Rain = 0
KHA3 210721Z 17011KT 28/17 A2986 RMK A01 T02800169  RH  051%=      5-min Rain = 0
KHA3 210722Z 17012KT 28/17 A2986 RMK A01 T02800169  RH  051%=      5-min Rain = 0
KHA3 210723Z 17013KT 28/17 A2986 RMK A01 T02800169  RH  051%=      5-min Rain = 0
KHA3 210724Z 17013KT 28/17 A2986 RMK A01 T02790169  RH  051%=      5-min Rain = 0
KHA3 210725Z 17011KT 28/17 A2986 RMK A01 T02790169  RH  051%=      5-min Rain = 0
KHA3 210726Z 17012KT 28/17 A2986 RMK A01 T02790169  RH  051%=      5-min Rain = 0
KHA3 210727Z 17013KT 28/17 A2986 RMK A01 T02780169  RH  051%=      5-min Rain = 0
KHA3 210728Z 17012KT 28/17 A2986 RMK A01 T02790169  RH  051%=      5-min Rain = 0
KHA3 210729Z 17012KT 28/17 A2986 RMK A01 T02780169  RH  051%=      5-min Rain = 0
KHA3 210730Z 17011KT 28/17 A2986 RMK A01 T02780169  RH  051%=      5-min Rain = 0
KHA3 210731Z 18012KT 28/17 A2986 RMK A01 T02780169  RH  051%=      5-min Rain = 0
KHA3 210732Z 17011KT 28/17 A2986 RMK A01 T02780169  RH  051%=      5-min Rain = 0
KHA3 210733Z 17011KT 28/17 A2986 RMK A01 T02780169  RH  051%=      5-min Rain = 0
KHA3 210734Z 18012KT 28/17 A2986 RMK A01 T02780169  RH  051%=      5-min Rain = 0
KHA3 210735Z 18011KT 28/17 A2986 RMK A01 T02790169  RH  051%=      5-min Rain = 0
KHA3 210736Z 18011KT 28/17 A2986 RMK A01 T02790169  RH  051%=      5-min Rain = 0
KHA3 210737Z 18011KT 28/17 A2986 RMK A01 T02790169  RH  051%=      5-min Rain = 0
KHA3 210738Z 18011KT 28/17 A2986 RMK A01 T02790169  RH  051%=      5-min Rain = 0
KHA3 210739Z 18010KT 28/17 A2986 RMK A01 T02790169  RH  051%=      5-min Rain = 0
KHA3 210740Z 18011KT 28/17 A2986 RMK A01 T02790169  RH  051%=      5-min Rain = 0
KHA3 210741Z 18011KT 28/17 A2986 RMK A01 T02780169  RH  051%=      5-min Rain = 0
KHA3 210742Z 18010KT 28/17 A2986 RMK A01 T02780169  RH  051%=      5-min Rain = 0
KHA3 210743Z 18010KT 28/17 A2986 RMK A01 T02780169  RH  051%=      5-min Rain = 0
KHA3 210744Z 18010KT 28/17 A2986 RMK A01 T02770169  RH  052%=      5-min Rain = 0
KHA3 210745Z 18010KT 28/17 A2986 RMK A01 T02760168  RH  052%=      5-min Rain = 0
KHA3 210746Z 18009KT 28/17 A2986 RMK A01 T02760169  RH  052%=      5-min Rain = 0
KHA3 210747Z 18011KT 28/17 A2986 RMK A01 T02750169  RH  052%=      5-min Rain = 0
KHA3 210748Z 18010KT 28/17 A2986 RMK A01 T02750169  RH  052%=      5-min Rain = 0
KHA3 210749Z 18012KT 28/17 A2986 RMK A01 T02750169  RH  052%=      5-min Rain = 0
KHA3 210750Z 18010KT 28/17 A2986 RMK A01 T02750169  RH  052%=      5-min Rain = 0
KHA3 210751Z 18012KT 28/17 A2986 RMK A01 T02760169  RH  052%=      5-min Rain = 0
KHA3 210752Z 18011KT 28/17 A2986 RMK A01 T02760169  RH  052%=      5-min Rain = 0
KHA3 210753Z 18011KT 28/17 A2986 RMK A01 T02760169  RH  052%=      5-min Rain = 0
KHA3 210754Z 18010KT 28/17 A2986 RMK A01 T02760169  RH  052%=      5-min Rain = 0
KHA3 210755Z 18010KT 28/17 A2986 RMK A01 T02750169  RH  052%=      5-min Rain = 0
KHA3 210756Z 18010KT 27/17 A2986 RMK A01 T02740169  RH  053%=      5-min Rain = 0
KHA3 210757Z 18011KT 27/17 A2986 RMK A01 T02730169  RH  053%=      5-min Rain = 0
KHA3 210758Z 18011KT 27/17 A2986 RMK A01 T02730169  RH  053%=      5-min Rain = 0
KHA3 210759Z 18011KT 27/17 A2986 RMK A01 T02730168  RH  053%=      5-min Rain = 0
KHA3 210800Z 18011KT 27/17 A2986 RMK A01 T02730168  RH  053%=      5-min Rain = 0
KHA3 210801Z 18011KT 27/17 A2987 RMK A01 T02740169  RH  053%=      5-min Rain = 0
KHA3 210802Z 18010KT 27/17 A2987 RMK A01 T02740168  RH  053%=      5-min Rain = 0
KHA3 210803Z 18009KT 27/17 A2987 RMK A01 T02740169  RH  053%=      5-min Rain = 0
KHA3 210804Z 18010KT 27/17 A2987 RMK A01 T02730169  RH  053%=      5-min Rain = 0
KHA3 210805Z 18011KT 27/17 A2987 RMK A01 T02720168  RH  053%=      5-min Rain = 0
KHA3 210806Z 18010KT 27/17 A2987 RMK A01 T02730169  RH  053%=      5-min Rain = 0
KHA3 210807Z 18010KT 27/17 A2987 RMK A01 T02730169  RH  053%=      5-min Rain = 0
KHA3 210808Z 18009KT 27/17 A2987 RMK A01 T02720168  RH  053%=      5-min Rain = 0
KHA3 210809Z 18010KT 27/17 A2987 RMK A01 T02720169  RH  053%=      5-min Rain = 0
KHA3 210810Z 17010KT 27/17 A2987 RMK A01 T02720168  RH  053%=      5-min Rain = 0
KHA3 210811Z 18009KT 27/17 A2987 RMK A01 T02720169  RH  053%=      5-min Rain = 0
KHA3 210812Z 18010KT 27/17 A2987 RMK A01 T02720169  RH  053%=      5-min Rain = 0
KHA3 210813Z 18010KT 27/17 A2987 RMK A01 T02720168  RH  053%=      5-min Rain = 0
KHA3 210814Z 18010KT 27/17 A2987 RMK A01 T02710168  RH  053%=      5-min Rain = 0
KHA3 210815Z 18010KT 27/17 A2987 RMK A01 T02710168  RH  053%=      5-min Rain = 0
KHA3 210816Z 19010KT 27/17 A2987 RMK A01 T02710169  RH  053%=      5-min Rain = 0
KHA3 210817Z 18009KT 27/17 A2987 RMK A01 T02710169  RH  054%=      5-min Rain = 0
KHA3 210818Z 18010KT 27/17 A2987 RMK A01 T02700168  RH  054%=      5-min Rain = 0
KHA3 210819Z 18010KT 27/17 A2987 RMK A01 T02700168  RH  054%=      5-min Rain = 0
KHA3 210820Z 18009KT 27/17 A2987 RMK A01 T02700168  RH  054%=      5-min Rain = 0
KHA3 210821Z 18010KT 27/17 A2987 RMK A01 T02700168  RH  054%=      5-min Rain = 0
KHA3 210822Z 18009KT 27/17 A2987 RMK A01 T02700168  RH  054%=      5-min Rain = 0
KHA3 210823Z 18010KT 27/17 A2987 RMK A01 T02700168  RH  054%=      5-min Rain = 0
KHA3 210824Z 18009KT 27/17 A2987 RMK A01 T02700168  RH  054%=      5-min Rain = 0
KHA3 210825Z 18009KT 27/17 A2987 RMK A01 T02690168  RH  054%=      5-min Rain = 0
KHA3 210826Z 18009KT 27/17 A2987 RMK A01 T02700168  RH  054%=      5-min Rain = 0
KHA3 210827Z 18009KT 27/17 A2987 RMK A01 T02690168  RH  054%=      5-min Rain = 0
KHA3 210828Z 18009KT 27/17 A2987 RMK A01 T02680168  RH  054%=      5-min Rain = 0
KHA3 210829Z 18009KT 27/17 A2987 RMK A01 T02680169  RH  055%=      5-min Rain = 0
KHA3 210830Z 18009KT 27/17 A2987 RMK A01 T02670168  RH  055%=      5-min Rain = 0
KHA3 210831Z 18010KT 27/17 A2987 RMK A01 T02670168  RH  055%=      5-min Rain = 0
KHA3 210832Z 18010KT 27/17 A2987 RMK A01 T02660168  RH  055%=      5-min Rain = 0
KHA3 210833Z 18010KT 27/17 A2987 RMK A01 T02670168  RH  055%=      5-min Rain = 0
KHA3 210834Z 18010KT 27/17 A2987 RMK A01 T02660168  RH  055%=      5-min Rain = 0
KHA3 210835Z 17010KT 27/17 A2987 RMK A01 T02660168  RH  055%=      5-min Rain = 0
KHA3 210836Z 17010KT 27/17 A2987 RMK A01 T02660168  RH  055%=      5-min Rain = 0
KHA3 210837Z 17011KT 27/17 A2987 RMK A01 T02660168  RH  055%=      5-min Rain = 0
KHA3 210838Z 18011KT 27/17 A2987 RMK A01 T02660168  RH  055%=      5-min Rain = 0
KHA3 210839Z 18011KT 27/17 A2986 RMK A01 T02650168  RH  055%=      5-min Rain = 0
KHA3 210840Z 18011KT 27/17 A2986 RMK A01 T02660168  RH  055%=      5-min Rain = 0
KHA3 210841Z 18011KT 27/17 A2986 RMK A01 T02660168  RH  055%=      5-min Rain = 0
KHA3 210842Z 18011KT 27/17 A2986 RMK A01 T02660169  RH  055%=      5-min Rain = 0
KHA3 210843Z 18011KT 27/17 A2986 RMK A01 T02650168  RH  055%=      5-min Rain = 0
KHA3 210844Z 18011KT 27/17 A2986 RMK A01 T02660168  RH  055%=      5-min Rain = 0
KHA3 210845Z 18011KT 27/17 A2986 RMK A01 T02650168  RH  055%=      5-min Rain = 0
KHA3 210846Z 18011KT 27/17 A2986 RMK A01 T02650168  RH  055%=      5-min Rain = 0
KHA3 210847Z 18011KT 27/17 A2986 RMK A01 T02650168  RH  055%=      5-min Rain = 0
KHA3 210848Z 18012KT 26/17 A2986 RMK A01 T02640168  RH  055%=      5-min Rain = 0
KHA3 210849Z 18012KT 27/17 A2986 RMK A01 T02650168  RH  055%=      5-min Rain = 0
KHA3 210850Z 18012KT 27/17 A2986 RMK A01 T02650168  RH  055%=      5-min Rain = 0
KHA3 210851Z 18011KT 27/17 A2986 RMK A01 T02650168  RH  055%=      5-min Rain = 0
KHA3 210852Z 18011KT 27/17 A2986 RMK A01 T02650168  RH  055%=      5-min Rain = 0
KHA3 210853Z 18011KT 27/17 A2986 RMK A01 T02650168  RH  055%=      5-min Rain = 0
KHA3 210854Z 18010KT 27/17 A2986 RMK A01 T02650168  RH  055%=      5-min Rain = 0
KHA3 210855Z 18010KT 26/17 A2986 RMK A01 T02640168  RH  056%=      5-min Rain = 0
KHA3 210856Z 18011KT 26/17 A2987 RMK A01 T02630168  RH  056%=      5-min Rain = 0
KHA3 210857Z 18011KT 26/17 A2987 RMK A01 T02630167  RH  056%=      5-min Rain = 0
KHA3 210858Z 18011KT 26/17 A2986 RMK A01 T02630167  RH  055%=      5-min Rain = 0
KHA3 210859Z 18011KT 26/17 A2986 RMK A01 T02640167  RH  055%=      5-min Rain = 0
KHA3 210900Z 18011KT 26/17 A2986 RMK A01 T02640167  RH  055%=      5-min Rain = 0
KHA3 210901Z 18010KT 26/17 A2986 RMK A01 T02640167  RH  055%=      5-min Rain = 0
KHA3 210902Z 18011KT 26/17 A2986 RMK A01 T02640168  RH  056%=      5-min Rain = 0
KHA3 210903Z 18012KT 26/17 A2986 RMK A01 T02630168  RH  056%=      5-min Rain = 0
KHA3 210904Z 18011KT 26/17 A2986 RMK A01 T02630167  RH  056%=      5-min Rain = 0
KHA3 210905Z 18012KT 26/17 A2986 RMK A01 T02630167  RH  056%=      5-min Rain = 0
KHA3 210906Z 18011KT 26/17 A2986 RMK A01 T02630168  RH  056%=      5-min Rain = 0
KHA3 210907Z 18012KT 26/17 A2986 RMK A01 T02630168  RH  056%=      5-min Rain = 0
KHA3 210908Z 18011KT 26/17 A2986 RMK A01 T02630167  RH  055%=      5-min Rain = 0
KHA3 210909Z 18012KT 26/17 A2986 RMK A01 T02630167  RH  055%=      5-min Rain = 0
KHA3 210910Z 18011KT 26/17 A2986 RMK A01 T02630167  RH  056%=      5-min Rain = 0
KHA3 210911Z 18011KT 26/17 A2986 RMK A01 T02630167  RH  056%=      5-min Rain = 0
KHA3 210912Z 18012KT 26/17 A2986 RMK A01 T02630167  RH  056%=      5-min Rain = 0
KHA3 210913Z 18011KT 26/17 A2987 RMK A01 T02630167  RH  055%=      5-min Rain = 0
KHA3 210914Z 18010KT 26/17 A2987 RMK A01 T02630167  RH  055%=      5-min Rain = 0
KHA3 210915Z 18010KT 26/17 A2987 RMK A01 T02630167  RH  056%=      5-min Rain = 0
KHA3 210916Z 19011KT 26/17 A2987 RMK A01 T02620167  RH  056%=      5-min Rain = 0
KHA3 210917Z 19011KT 26/17 A2987 RMK A01 T02620167  RH  056%=      5-min Rain = 0
KHA3 210918Z 18010KT 26/17 A2987 RMK A01 T02620167  RH  056%=      5-min Rain = 0
KHA3 210919Z 18010KT 26/17 A2987 RMK A01 T02610167  RH  056%=      5-min Rain = 0
KHA3 210920Z 18009KT 26/17 A2987 RMK A01 T02610167  RH  056%=      5-min Rain = 0
KHA3 210921Z 19010KT 26/17 A2987 RMK A01 T02610167  RH  056%=      5-min Rain = 0
KHA3 210922Z 19010KT 26/17 A2987 RMK A01 T02610167  RH  056%=      5-min Rain = 0
KHA3 210923Z 19010KT 26/17 A2987 RMK A01 T02600167  RH  056%=      5-min Rain = 0
KHA3 210924Z 19010KT 26/17 A2987 RMK A01 T02600167  RH  056%=      5-min Rain = 0
KHA3 210925Z 19010KT 26/17 A2988 RMK A01 T02600167  RH  056%=      5-min Rain = 0
KHA3 210926Z 19009KT 26/17 A2988 RMK A01 T02600167  RH  056%=      5-min Rain = 0
KHA3 210927Z 18009KT 26/17 A2988 RMK A01 T02600166  RH  056%=      5-min Rain = 0
KHA3 210928Z 19009KT 26/17 A2988 RMK A01 T02590167  RH  057%=      5-min Rain = 0
KHA3 210929Z 18010KT 26/17 A2988 RMK A01 T02590167  RH  057%=      5-min Rain = 0
KHA3 210930Z 18009KT 26/17 A2988 RMK A01 T02590167  RH  057%=      5-min Rain = 0
KHA3 210931Z 18011KT 26/17 A2988 RMK A01 T02590166  RH  057%=      5-min Rain = 0
KHA3 210932Z 18009KT 26/17 A2988 RMK A01 T02590166  RH  056%=      5-min Rain = 0
KHA3 210933Z 18009KT 26/17 A2988 RMK A01 T02600166  RH  056%=      5-min Rain = 0
KHA3 210934Z 18009KT 26/17 A2988 RMK A01 T02590166  RH  056%=      5-min Rain = 0
KHA3 210935Z 18009KT 26/17 A2988 RMK A01 T02590166  RH  056%=      5-min Rain = 0
KHA3 210936Z 18010KT 26/17 A2988 RMK A01 T02600166  RH  056%=      5-min Rain = 0
KHA3 210937Z 18009KT 26/17 A2988 RMK A01 T02590165  RH  056%=      5-min Rain = 0
KHA3 210938Z 18009KT 26/17 A2988 RMK A01 T02600166  RH  056%=      5-min Rain = 0
KHA3 210939Z 18009KT 26/17 A2988 RMK A01 T02590166  RH  056%=      5-min Rain = 0
KHA3 210940Z 18008KT 26/17 A2989 RMK A01 T02580166  RH  057%=      5-min Rain = 0
KHA3 210941Z 18008KT 26/17 A2989 RMK A01 T02580166  RH  057%=      5-min Rain = 0
KHA3 210942Z 18008KT 26/17 A2989 RMK A01 T02580166  RH  057%=      5-min Rain = 0
KHA3 210943Z 18008KT 26/17 A2989 RMK A01 T02570166  RH  057%=      5-min Rain = 0
KHA3 210944Z 18008KT 26/17 A2989 RMK A01 T02570166  RH  057%=      5-min Rain = 0
KHA3 210945Z 17008KT 26/17 A2989 RMK A01 T02560166  RH  057%=      5-min Rain = 0
KHA3 210946Z 17008KT 26/17 A2989 RMK A01 T02560166  RH  057%=      5-min Rain = 0
KHA3 210947Z 17009KT 26/17 A2989 RMK A01 T02560166  RH  058%=      5-min Rain = 0
KHA3 210948Z 17008KT 26/17 A2989 RMK A01 T02550165  RH  058%=      5-min Rain = 0
KHA3 210949Z 17008KT 26/17 A2989 RMK A01 T02550165  RH  058%=      5-min Rain = 0
KHA3 210950Z 17008KT 26/17 A2989 RMK A01 T02550165  RH  058%=      5-min Rain = 0
KHA3 210951Z 17008KT 26/17 A2989 RMK A01 T02550165  RH  058%=      5-min Rain = 0
KHA3 210952Z 17008KT 25/17 A2989 RMK A01 T02540165  RH  058%=      5-min Rain = 0
KHA3 210953Z 17008KT 25/17 A2989 RMK A01 T02540165  RH  058%=      5-min Rain = 0
KHA3 210954Z 17008KT 25/17 A2989 RMK A01 T02540165  RH  058%=      5-min Rain = 0
KHA3 210955Z 17008KT 25/17 A2989 RMK A01 T02540165  RH  058%=      5-min Rain = 0
KHA3 210956Z 17008KT 25/17 A2989 RMK A01 T02530165  RH  058%=      5-min Rain = 0
KHA3 210957Z 17008KT 25/17 A2989 RMK A01 T02530165  RH  058%=      5-min Rain = 0
KHA3 210958Z 16008KT 25/17 A2988 RMK A01 T02530165  RH  058%=      5-min Rain = 0
KHA3 210959Z 17007KT 25/17 A2988 RMK A01 T02530165  RH  058%=      5-min Rain = 0
KHA3 211000Z 16008KT 25/17 A2988 RMK A01 T02530165  RH  058%=      5-min Rain = 0
KHA3 211001Z 16008KT 25/17 A2988 RMK A01 T02530165  RH  058%=      5-min Rain = 0
KHA3 211002Z 17009KT 25/17 A2988 RMK A01 T02540165  RH  058%=      5-min Rain = 0
KHA3 211003Z 16008KT 25/17 A2989 RMK A01 T02540165  RH  058%=      5-min Rain = 0
KHA3 211004Z 16008KT 25/17 A2989 RMK A01 T02540165  RH  058%=      5-min Rain = 0
KHA3 211005Z 16008KT 25/17 A2989 RMK A01 T02540165  RH  058%=      5-min Rain = 0
KHA3 211006Z 16008KT 25/17 A2989 RMK A01 T02540165  RH  058%=      5-min Rain = 0
KHA3 211007Z 16008KT 25/17 A2989 RMK A01 T02540165  RH  058%=      5-min Rain = 0
KHA3 211008Z 16007KT 25/17 A2989 RMK A01 T02530165  RH  058%=      5-min Rain = 0
KHA3 211009Z 16008KT 25/17 A2989 RMK A01 T02530165  RH  058%=      5-min Rain = 0
KHA3 211010Z 16009KT 25/17 A2989 RMK A01 T02520165  RH  058%=      5-min Rain = 0
KHA3 211011Z 16009KT 25/17 A2989 RMK A01 T02530165  RH  058%=      5-min Rain = 0
KHA3 211012Z 16009KT 25/17 A2989 RMK A01 T02530165  RH  058%=      5-min Rain = 0
KHA3 211013Z 16008KT 25/17 A2989 RMK A01 T02530165  RH  058%=      5-min Rain = 0
KHA3 211014Z 16008KT 25/17 A2989 RMK A01 T02530165  RH  058%=      5-min Rain = 0
KHA3 211015Z 16009KT 25/17 A2989 RMK A01 T02520165  RH  059%=      5-min Rain = 0
KHA3 211016Z 16009KT 25/17 A2989 RMK A01 T02520165  RH  059%=      5-min Rain = 0
KHA3 211017Z 16009KT 25/17 A2989 RMK A01 T02520165  RH  059%=      5-min Rain = 0
KHA3 211018Z 16009KT 25/17 A2989 RMK A01 T02520165  RH  059%=      5-min Rain = 0
KHA3 211019Z 16008KT 25/17 A2989 RMK A01 T02510165  RH  059%=      5-min Rain = 0
KHA3 211020Z 16009KT 25/17 A2989 RMK A01 T02510165  RH  059%=      5-min Rain = 0
KHA3 211021Z 15009KT 25/17 A2989 RMK A01 T02510166  RH  059%=      5-min Rain = 0
KHA3 211022Z 16008KT 25/17 A2989 RMK A01 T02510166  RH  059%=      5-min Rain = 0
KHA3 211023Z 15008KT 25/17 A2989 RMK A01 T02510166  RH  059%=      5-min Rain = 0
KHA3 211024Z 16009KT 25/17 A2989 RMK A01 T02500166  RH  059%=      5-min Rain = 0
KHA3 211025Z 15008KT 25/17 A2989 RMK A01 T02500166  RH  059%=      5-min Rain = 0
KHA3 211026Z 16007KT 25/17 A2989 RMK A01 T02500166  RH  060%=      5-min Rain = 0
KHA3 211027Z 15007KT 25/17 A2989 RMK A01 T02490166  RH  060%=      5-min Rain = 0
KHA3 211028Z 15007KT 25/17 A2989 RMK A01 T02480166  RH  060%=      5-min Rain = 0
KHA3 211029Z 15007KT 25/17 A2989 RMK A01 T02470166  RH  061%=      5-min Rain = 0
KHA3 211030Z 14007KT 25/17 A2989 RMK A01 T02460166  RH  061%=      5-min Rain = 0
KHA3 211031Z 14007KT 25/17 A2989 RMK A01 T02450166  RH  061%=      5-min Rain = 0
KHA3 211032Z 14007KT 24/17 A2989 RMK A01 T02440167  RH  062%=      5-min Rain = 0
KHA3 211033Z 15008KT 24/17 A2989 RMK A01 T02430167  RH  062%=      5-min Rain = 0
KHA3 211034Z 14008KT 24/17 A2989 RMK A01 T02430167  RH  063%=      5-min Rain = 0
KHA3 211035Z 14008KT 24/17 A2989 RMK A01 T02430167  RH  063%=      5-min Rain = 0
KHA3 211036Z 14008KT 24/17 A2989 RMK A01 T02430167  RH  063%=      5-min Rain = 0
KHA3 211037Z 14008KT 24/17 A2989 RMK A01 T02430167  RH  063%=      5-min Rain = 0
KHA3 211038Z 14008KT 24/17 A2989 RMK A01 T02430167  RH  063%=      5-min Rain = 0
KHA3 211039Z 14008KT 24/17 A2989 RMK A01 T02420167  RH  063%=      5-min Rain = 0
KHA3 211040Z 15009KT 24/17 A2989 RMK A01 T02420167  RH  063%=      5-min Rain = 0
KHA3 211041Z 14009KT 24/17 A2989 RMK A01 T02420167  RH  063%=      5-min Rain = 0
KHA3 211042Z 15009KT 24/17 A2989 RMK A01 T02430167  RH  062%=      5-min Rain = 0
KHA3 211043Z 15010KT 24/17 A2989 RMK A01 T02430167  RH  062%=      5-min Rain = 0
KHA3 211044Z 15010KT 24/17 A2989 RMK A01 T02430167  RH  062%=      5-min Rain = 0
KHA3 211045Z 15009KT 24/17 A2989 RMK A01 T02430167  RH  063%=      5-min Rain = 0
KHA3 211046Z 15010KT 24/17 A2989 RMK A01 T02430167  RH  063%=      5-min Rain = 0
KHA3 211047Z 15010KT 24/17 A2989 RMK A01 T02430167  RH  062%=      5-min Rain = 0
KHA3 211048Z 15010KT 24/17 A2989 RMK A01 T02440167  RH  062%=      5-min Rain = 0
KHA3 211049Z 15009KT 25/17 A2989 RMK A01 T02450167  RH  062%=      5-min Rain = 0
KHA3 211050Z 15009KT 25/17 A2989 RMK A01 T02450167  RH  062%=      5-min Rain = 0
KHA3 211051Z 16011KT 25/17 A2989 RMK A01 T02450167  RH  062%=      5-min Rain = 0
KHA3 211052Z 16011KT 25/17 A2989 RMK A01 T02450167  RH  062%=      5-min Rain = 0
KHA3 211053Z 15011KT 25/17 A2989 RMK A01 T02450168  RH  062%=      5-min Rain = 0
KHA3 211054Z 16011KT 24/17 A2989 RMK A01 T02440167  RH  062%=      5-min Rain = 0
KHA3 211055Z 16011KT 24/17 A2989 RMK A01 T02440168  RH  063%=      5-min Rain = 0
KHA3 211056Z 16011KT 24/17 A2989 RMK A01 T02430167  RH  063%=      5-min Rain = 0
KHA3 211057Z 16010KT 24/17 A2989 RMK A01 T02430167  RH  062%=      5-min Rain = 0
KHA3 211058Z 16011KT 24/17 A2989 RMK A01 T02440167  RH  062%=      5-min Rain = 0
KHA3 211059Z 16011KT 24/17 A2989 RMK A01 T02440167  RH  062%=      5-min Rain = 0
KHA3 211100Z 16010KT 24/17 A2989 RMK A01 T02440167  RH  062%=      5-min Rain = 0
KHA3 211101Z 16010KT 25/17 A2989 RMK A01 T02450168  RH  062%=      5-min Rain = 0
KHA3 211102Z 16010KT 25/17 A2989 RMK A01 T02450168  RH  062%=      5-min Rain = 0
KHA3 211103Z 17009KT 24/17 A2989 RMK A01 T02440167  RH  062%=      5-min Rain = 0
KHA3 211104Z 17010KT 24/17 A2989 RMK A01 T02440168  RH  062%=      5-min Rain = 0
KHA3 211105Z 17010KT 24/17 A2989 RMK A01 T02440168  RH  062%=      5-min Rain = 0
KHA3 211106Z 17010KT 24/17 A2989 RMK A01 T02440168  RH  062%=      5-min Rain = 0
KHA3 211107Z 17010KT 24/17 A2989 RMK A01 T02440168  RH  062%=      5-min Rain = 0
KHA3 211108Z 17012KT 24/17 A2989 RMK A01 T02440167  RH  062%=      5-min Rain = 0
KHA3 211109Z 17012KT 25/17 A2989 RMK A01 T02450168  RH  062%=      5-min Rain = 0
KHA3 211110Z 16012KT 25/17 A2989 RMK A01 T02460168  RH  061%=      5-min Rain = 0
KHA3 211111Z 17011KT 25/17 A2989 RMK A01 T02470168  RH  061%=      5-min Rain = 0
KHA3 211112Z 17011KT 25/17 A2989 RMK A01 T02470168  RH  061%=      5-min Rain = 0
KHA3 211113Z 17011KT 25/17 A2989 RMK A01 T02470168  RH  061%=      5-min Rain = 0
KHA3 211114Z 16011KT 25/17 A2989 RMK A01 T02470168  RH  061%=      5-min Rain = 0
KHA3 211115Z 16012KT 25/17 A2989 RMK A01 T02470168  RH  061%=      5-min Rain = 0
KHA3 211116Z 16011KT 25/17 A2989 RMK A01 T02470168  RH  061%=      5-min Rain = 0
KHA3 211117Z 16011KT 25/17 A2989 RMK A01 T02470168  RH  061%=      5-min Rain = 0
KHA3 211118Z 16011KT 25/17 A2989 RMK A01 T02470168  RH  061%=      5-min Rain = 0
KHA3 211119Z 16011KT 25/17 A2989 RMK A01 T02470168  RH  061%=      5-min Rain = 0
KHA3 211120Z 16011KT 25/17 A2989 RMK A01 T02470169  RH  062%=      5-min Rain = 0
KHA3 211121Z 15010KT 25/17 A2989 RMK A01 T02470169  RH  062%=      5-min Rain = 0
KHA3 211122Z 16010KT 25/17 A2989 RMK A01 T02460169  RH  062%=      5-min Rain = 0
KHA3 211123Z 15010KT 25/17 A2989 RMK A01 T02450168  RH  062%=      5-min Rain = 0
KHA3 211124Z 15010KT 25/17 A2989 RMK A01 T02450169  RH  063%=      5-min Rain = 0
KHA3 211125Z 16009KT 24/17 A2989 RMK A01 T02440169  RH  063%=      5-min Rain = 0
KHA3 211126Z 15010KT 24/17 A299 RMK A01 T02440169  RH  063%=      5-min Rain = 0
KHA3 211127Z 15009KT 24/17 A299 RMK A01 T02430169  RH  063%=      5-min Rain = 0
KHA3 211128Z 15011KT 24/17 A299 RMK A01 T02430169  RH  063%=      5-min Rain = 0
KHA3 211129Z 15010KT 24/17 A299 RMK A01 T02430168  RH  063%=      5-min Rain = 0
KHA3 211130Z 15010KT 24/17 A299 RMK A01 T02430169  RH  063%=      5-min Rain = 0
KHA3 211131Z 15010KT 24/17 A299 RMK A01 T02430169  RH  063%=      5-min Rain = 0
KHA3 211132Z 15009KT 24/17 A299 RMK A01 T02430169  RH  063%=      5-min Rain = 0
KHA3 211133Z 16009KT 24/17 A299 RMK A01 T02430169  RH  063%=      5-min Rain = 0
KHA3 211134Z 15009KT 24/17 A299 RMK A01 T02430169  RH  063%=      5-min Rain = 0
KHA3 211135Z 15010KT 24/17 A299 RMK A01 T02430170  RH  064%=      5-min Rain = 0
KHA3 211136Z 15009KT 24/17 A299 RMK A01 T02430170  RH  064%=      5-min Rain = 0
KHA3 211137Z 15007KT 24/17 A299 RMK A01 T02430170  RH  063%=      5-min Rain = 0
KHA3 211138Z 14009KT 24/17 A299 RMK A01 T02430170  RH  064%=      5-min Rain = 0
KHA3 211139Z 14008KT 24/17 A299 RMK A01 T02420170  RH  064%=      5-min Rain = 0
KHA3 211140Z 15008KT 24/17 A299 RMK A01 T02410170  RH  064%=      5-min Rain = 0
KHA3 211141Z 14009KT 24/17 A2991 RMK A01 T02410170  RH  064%=      5-min Rain = 0
KHA3 211142Z 14008KT 24/17 A2991 RMK A01 T02410170  RH  064%=      5-min Rain = 0
KHA3 211143Z 14009KT 24/17 A2991 RMK A01 T02420170  RH  064%=      5-min Rain = 0
KHA3 211144Z 14008KT 24/17 A2991 RMK A01 T02420170  RH  064%=      5-min Rain = 0
KHA3 211145Z 14009KT 24/17 A2991 RMK A01 T02410170  RH  064%=      5-min Rain = 0
KHA3 211146Z 14008KT 24/17 A2991 RMK A01 T02410170  RH  064%=      5-min Rain = 0
KHA3 211147Z 14008KT 24/17 A2991 RMK A01 T02420171  RH  064%=      5-min Rain = 0
KHA3 211148Z 13007KT 24/17 A2992 RMK A01 T02420171  RH  065%=      5-min Rain = 0
KHA3 211149Z 13007KT 24/17 A2992 RMK A01 T02420171  RH  064%=      5-min Rain = 0
KHA3 211150Z 13007KT 24/17 A2992 RMK A01 T02430171  RH  064%=      5-min Rain = 0
KHA3 211151Z 13006KT 24/17 A2992 RMK A01 T02430171  RH  064%=      5-min Rain = 0
KHA3 211152Z 12007KT 24/17 A2992 RMK A01 T02440171  RH  064%=      5-min Rain = 0
KHA3 211153Z 13006KT 25/17 A2992 RMK A01 T02450172  RH  064%=      5-min Rain = 0
KHA3 211154Z 12006KT 25/17 A2992 RMK A01 T02450172  RH  064%=      5-min Rain = 0
KHA3 211155Z 11005KT 24/17 A2992 RMK A01 T02440172  RH  064%=      5-min Rain = 0
KHA3 211156Z 10005KT 25/17 A2993 RMK A01 T02450173  RH  064%=      5-min Rain = 0
KHA3 211157Z 10005KT 24/17 A2993 RMK A01 T02440173  RH  064%=      5-min Rain = 0
KHA3 211158Z 08004KT 24/17 A2993 RMK A01 T02440173  RH  064%=      5-min Rain = 0
KHA3 211159Z 04004KT 24/17 A2993 RMK A01 T02440172  RH  064%=      5-min Rain = 0
KHA3 211200Z 04004KT 24/17 A2994 RMK A01 T02430172  RH  064%=      5-min Rain = 0
KHA3 211201Z 03005KT 24/17 A2994 RMK A01 T02420172  RH  065%=      5-min Rain = 0
KHA3 211202Z 01005KT 24/17 A2994 RMK A01 T02400172  RH  066%=      5-min Rain = 0
KHA3 211203Z 35009KT 24/17 A2995 RMK A01 T02390173  RH  067%=      5-min Rain = 0
KHA3 211204Z 35010KT 24/17 A2995 RMK A01 T02370173  RH  067%=      5-min Rain = 0
KHA3 211205Z 35010KT 23/17 A2995 RMK A01 T02340172  RH  068%=      5-min Rain = 0
KHA3 211206Z 35011KT 23/17 A2996 RMK A01 T02320172  RH  069%=      5-min Rain = 0
KHA3 211207Z 36010KT 23/17 A2996 RMK A01 T02290172  RH  070%=      5-min Rain = 0
KHA3 211208Z 36007KT 23/17 A2995 RMK A01 T02290172  RH  070%=      5-min Rain = 0
KHA3 211209Z 01006KT 23/17 A2995 RMK A01 T02290173  RH  071%=      5-min Rain = 0
KHA3 211210Z 04004KT 23/17 A2995 RMK A01 T02290173  RH  071%=      5-min Rain = 0
KHA3 211211Z 06004KT 23/17 A2994 RMK A01 T02290173  RH  071%=      5-min Rain = 0
KHA3 211212Z 08005KT 23/17 A2994 RMK A01 T02290173  RH  071%=      5-min Rain = 0
KHA3 211213Z 10005KT 23/17 A2994 RMK A01 T02280172  RH  071%=      5-min Rain = 0
KHA3 211214Z 10004KT 23/17 A2994 RMK A01 T02280173  RH  071%=      5-min Rain = 0
KHA3 211215Z 10005KT 23/17 A2994 RMK A01 T02280174  RH  071%=      5-min Rain = 0
KHA3 211216Z 09003KT 23/17 A2994 RMK A01 T02280174  RH  072%=      5-min Rain = 0
KHA3 211217Z 08003KT 23/17 A2994 RMK A01 T02270174  RH  072%=      5-min Rain = 0
KHA3 211218Z 04002KT 23/17 A2995 RMK A01 T02280174  RH  072%=      5-min Rain = 0
KHA3 211219Z 02003KT 23/17 A2995 RMK A01 T02280173  RH  071%=      5-min Rain = 0
KHA3 211220Z 00003KT 23/17 A2995 RMK A01 T02270174  RH  072%=      5-min Rain = 0
KHA3 211221Z 00004KT 23/17 A2995 RMK A01 T02280174  RH  072%=      5-min Rain = 0
KHA3 211222Z 00003KT 23/18 A2995 RMK A01 T02280175  RH  072%=      5-min Rain = 0
KHA3 211223Z 36003KT 23/18 A2995 RMK A01 T02270175  RH  072%=      5-min Rain = 0
KHA3 211224Z 36003KT 23/18 A2995 RMK A01 T02280175  RH  072%=      5-min Rain = 0
KHA3 211225Z 01002KT 23/18 A2995 RMK A01 T02280175  RH  072%=      5-min Rain = 0
KHA3 211226Z 04001KT 23/18 A2995 RMK A01 T02280175  RH  072%=      5-min Rain = 0
KHA3 211227Z 07001KT 23/18 A2995 RMK A01 T02290176  RH  072%=      5-min Rain = 0
KHA3 211228Z 09002KT 23/18 A2994 RMK A01 T02300176  RH  072%=      5-min Rain = 0
KHA3 211229Z 09001KT 23/18 A2995 RMK A01 T02300176  RH  071%=      5-min Rain = 0
KHA3 211230Z 05002KT 23/18 A2995 RMK A01 T02310175  RH  071%=      5-min Rain = 0
KHA3 211231Z 02003KT 23/18 A2995 RMK A01 T02310176  RH  071%=      5-min Rain = 0
KHA3 211232Z 00005KT 23/18 A2995 RMK A01 T02310177  RH  071%=      5-min Rain = 0
KHA3 211233Z 36008KT 23/18 A2995 RMK A01 T02310177  RH  072%=      5-min Rain = 0
KHA3 211234Z 35010KT 23/18 A2996 RMK A01 T02310177  RH  072%=      5-min Rain = 0
KHA3 211235Z 35010KT 23/18 A2996 RMK A01 T02300177  RH  072%=      5-min Rain = 0
KHA3 211236Z 36010KT 23/18 A2996 RMK A01 T02300177  RH  072%=      5-min Rain = 0
KHA3 211237Z 36008KT 23/18 A2996 RMK A01 T02300176  RH  072%=      5-min Rain = 0
KHA3 211238Z 00007KT 23/18 A2996 RMK A01 T02310176  RH  071%=      5-min Rain = 0
KHA3 211239Z 01004KT 23/18 A2996 RMK A01 T02330176  RH  070%=      5-min Rain = 0
KHA3 211240Z 02004KT 23/18 A2996 RMK A01 T02340176  RH  070%=      5-min Rain = 0
KHA3 211241Z 05003KT 24/18 A2996 RMK A01 T02350176  RH  070%=      5-min Rain = 0
KHA3 211242Z 06003KT 24/18 A2996 RMK A01 T02360176  RH  069%=      5-min Rain = 0
KHA3 211243Z 08003KT 24/18 A2995 RMK A01 T02370177  RH  069%=      5-min Rain = 0
KHA3 211244Z 07003KT 24/18 A2995 RMK A01 T02380177  RH  069%=      5-min Rain = 0
KHA3 211245Z 07004KT 24/18 A2995 RMK A01 T02390178  RH  069%=      5-min Rain = 0
KHA3 211246Z 06004KT 24/18 A2995 RMK A01 T02400178  RH  068%=      5-min Rain = 0
KHA3 211247Z 05003KT 24/18 A2995 RMK A01 T02400178  RH  068%=      5-min Rain = 0
KHA3 211248Z 05003KT 24/18 A2995 RMK A01 T02410176  RH  067%=      5-min Rain = 0
KHA3 211249Z 04003KT 24/18 A2996 RMK A01 T02410177  RH  067%=      5-min Rain = 0
KHA3 211250Z 05003KT 24/18 A2996 RMK A01 T02400178  RH  068%=      5-min Rain = 0
KHA3 211251Z 06003KT 24/18 A2995 RMK A01 T02410178  RH  068%=      5-min Rain = 0
KHA3 211252Z 07003KT 24/18 A2995 RMK A01 T02410177  RH  067%=      5-min Rain = 0
KHA3 211253Z 08004KT 24/18 A2995 RMK A01 T02410178  RH  068%=      5-min Rain = 0
KHA3 211254Z 08004KT 24/18 A2995 RMK A01 T02420178  RH  068%=      5-min Rain = 0
KHA3 211255Z 10004KT 24/18 A2995 RMK A01 T02420179  RH  068%=      5-min Rain = 0
KHA3 211256Z 10004KT 24/18 A2995 RMK A01 T02430179  RH  067%=      5-min Rain = 0
KHA3 211257Z 10004KT 24/18 A2995 RMK A01 T02440179  RH  067%=      5-min Rain = 0
KHA3 211258Z 10003KT 24/18 A2995 RMK A01 T02440180  RH  067%=      5-min Rain = 0
KHA3 211259Z 10003KT 25/18 A2995 RMK A01 T02460181  RH  067%=      5-min Rain = 0
KHA3 211300Z 10003KT 25/18 A2995 RMK A01 T02470180  RH  066%=      5-min Rain = 0
KHA3 211301Z 10003KT 25/18 A2995 RMK A01 T02480179  RH  066%=      5-min Rain = 0
KHA3 211302Z 11002KT 25/18 A2995 RMK A01 T02480179  RH  066%=      5-min Rain = 0
KHA3 211303Z 11002KT 25/18 A2995 RMK A01 T02490180  RH  066%=      5-min Rain = 0
KHA3 211304Z 10002KT 25/18 A2995 RMK A01 T02490180  RH  065%=      5-min Rain = 0
KHA3 211305Z 11002KT 25/18 A2995 RMK A01 T02500180  RH  065%=      5-min Rain = 0
KHA3 211306Z 11002KT 25/18 A2995 RMK A01 T02510181  RH  065%=      5-min Rain = 0
KHA3 211307Z 11002KT 25/18 A2995 RMK A01 T02520181  RH  065%=      5-min Rain = 0
KHA3 211308Z 10003KT 25/18 A2996 RMK A01 T02530180  RH  064%=      5-min Rain = 0
KHA3 211309Z 11003KT 25/18 A2996 RMK A01 T02540180  RH  063%=      5-min Rain = 0
KHA3 211310Z 10002KT 25/18 A2996 RMK A01 T02540179  RH  063%=      5-min Rain = 0
KHA3 211311Z 11002KT 25/18 A2996 RMK A01 T02540181  RH  064%=      5-min Rain = 0
KHA3 211312Z 12002KT 26/18 A2996 RMK A01 T02550180  RH  063%=      5-min Rain = 0
KHA3 211313Z 12002KT 26/18 A2996 RMK A01 T02550182  RH  064%=      5-min Rain = 0
KHA3 211314Z 15003KT 26/18 A2996 RMK A01 T02560182  RH  063%=      5-min Rain = 0
KHA3 211315Z 14003KT 26/18 A2996 RMK A01 T02570182  RH  063%=      5-min Rain = 0
KHA3 211316Z 14003KT 26/18 A2996 RMK A01 T02580183  RH  063%=      5-min Rain = 0
KHA3 211317Z 15004KT 26/18 A2996 RMK A01 T02580183  RH  063%=      5-min Rain = 0
KHA3 211318Z 15005KT 26/18 A2996 RMK A01 T02580182  RH  063%=      5-min Rain = 0
KHA3 211319Z 16004KT 26/18 A2996 RMK A01 T02590183  RH  063%=      5-min Rain = 0
KHA3 211320Z 15005KT 26/18 A2996 RMK A01 T02590184  RH  063%=      5-min Rain = 0
KHA3 211321Z 16005KT 26/18 A2996 RMK A01 T02590184  RH  063%=      5-min Rain = 0
KHA3 211322Z 16004KT 26/18 A2996 RMK A01 T02600184  RH  063%=      5-min Rain = 0
KHA3 211323Z 16005KT 26/19 A2996 RMK A01 T02610185  RH  063%=      5-min Rain = 0
KHA3 211324Z 16005KT 26/19 A2996 RMK A01 T02610185  RH  063%=      5-min Rain = 0
KHA3 211325Z 16005KT 26/19 A2996 RMK A01 T02620185  RH  063%=      5-min Rain = 0
KHA3 211326Z 16005KT 26/19 A2996 RMK A01 T02620186  RH  063%=      5-min Rain = 0
KHA3 211327Z 16003KT 26/19 A2996 RMK A01 T02620187  RH  063%=      5-min Rain = 0
KHA3 211328Z 16004KT 26/19 A2996 RMK A01 T02640187  RH  063%=      5-min Rain = 0
KHA3 211329Z 18005KT 27/19 A2996 RMK A01 T02660186  RH  062%=      5-min Rain = 0
KHA3 211330Z 17006KT 27/19 A2996 RMK A01 T02670186  RH  061%=      5-min Rain = 0
KHA3 211331Z 17008KT 27/19 A2996 RMK A01 T02680185  RH  060%=      5-min Rain = 0
KHA3 211332Z 16007KT 27/19 A2996 RMK A01 T02700186  RH  060%=      5-min Rain = 0
KHA3 211333Z 16007KT 27/19 A2996 RMK A01 T02710186  RH  060%=      5-min Rain = 0
KHA3 211334Z 17008KT 27/19 A2996 RMK A01 T02720186  RH  059%=      5-min Rain = 0
KHA3 211335Z 16008KT 27/19 A2996 RMK A01 T02720187  RH  059%=      5-min Rain = 0
KHA3 211336Z 17008KT 27/19 A2996 RMK A01 T02730186  RH  059%=      5-min Rain = 0
KHA3 211337Z 17007KT 27/19 A2996 RMK A01 T02730186  RH  059%=      5-min Rain = 0
KHA3 211338Z 17008KT 27/19 A2996 RMK A01 T02720186  RH  059%=      5-min Rain = 0
KHA3 211339Z 17007KT 27/19 A2996 RMK A01 T02720186  RH  059%=      5-min Rain = 0
KHA3 211340Z 17009KT 27/19 A2996 RMK A01 T02730185  RH  059%=      5-min Rain = 0
KHA3 211341Z 17008KT 27/19 A2996 RMK A01 T02730186  RH  059%=      5-min Rain = 0
KHA3 211342Z 18008KT 27/19 A2996 RMK A01 T02720186  RH  059%=      5-min Rain = 0
KHA3 211343Z 18008KT 27/19 A2996 RMK A01 T02720186  RH  059%=      5-min Rain = 0
KHA3 211344Z 17006KT 27/19 A2996 RMK A01 T02720188  RH  060%=      5-min Rain = 0
KHA3 211345Z 17007KT 27/19 A2996 RMK A01 T02730188  RH  060%=      5-min Rain = 0
KHA3 211346Z 17008KT 28/19 A2996 RMK A01 T02750188  RH  059%=      5-min Rain = 0
KHA3 211347Z 16008KT 28/19 A2996 RMK A01 T02750187  RH  059%=      5-min Rain = 0
KHA3 211348Z 16008KT 28/19 A2996 RMK A01 T02750188  RH  059%=      5-min Rain = 0
KHA3 211349Z 15009KT 28/19 A2996 RMK A01 T02750188  RH  059%=      5-min Rain = 0
KHA3 211350Z 16009KT 28/19 A2996 RMK A01 T02750188  RH  059%=      5-min Rain = 0
KHA3 211351Z 16008KT 28/19 A2996 RMK A01 T02760187  RH  059%=      5-min Rain = 0
KHA3 211352Z 16009KT 28/19 A2996 RMK A01 T02770189  RH  059%=      5-min Rain = 0
KHA3 211353Z 16011KT 28/19 A2996 RMK A01 T02770188  RH  058%=      5-min Rain = 0
KHA3 211354Z 16011KT 28/19 A2996 RMK A01 T02770187  RH  058%=      5-min Rain = 0
KHA3 211355Z 16011KT 28/19 A2996 RMK A01 T02760188  RH  059%=      5-min Rain = 0
KHA3 211356Z 17011KT 28/19 A2996 RMK A01 T02760188  RH  059%=      5-min Rain = 0
KHA3 211357Z 16009KT 28/19 A2996 RMK A01 T02770188  RH  059%=      5-min Rain = 0
KHA3 211358Z 17010KT 28/19 A2996 RMK A01 T02770189  RH  059%=      5-min Rain = 0
KHA3 211359Z 18010KT 28/19 A2996 RMK A01 T02780188  RH  058%=      5-min Rain = 0
KHA3 211400Z 17008KT 28/19 A2996 RMK A01 T02780188  RH  058%=      5-min Rain = 0
KHA3 211401Z 18010KT 28/19 A2996 RMK A01 T02770189  RH  059%=      5-min Rain = 0
KHA3 211402Z 18009KT 28/19 A2996 RMK A01 T02770189  RH  059%=      5-min Rain = 0
KHA3 211403Z 16009KT 28/19 A2996 RMK A01 T02770189  RH  059%=      5-min Rain = 0
KHA3 211404Z 16010KT 28/19 A2996 RMK A01 T02770189  RH  059%=      5-min Rain = 0
KHA3 211405Z 17010KT 28/19 A2996 RMK A01 T02780189  RH  059%=      5-min Rain = 0
KHA3 211406Z 17010KT 28/19 A2996 RMK A01 T02780189  RH  058%=      5-min Rain = 0
KHA3 211407Z 17010KT 28/19 A2996 RMK A01 T02790190  RH  058%=      5-min Rain = 0
KHA3 211408Z 17008KT 28/19 A2996 RMK A01 T02800189  RH  058%=      5-min Rain = 0
KHA3 211409Z 18009KT 28/19 A2996 RMK A01 T02810190  RH  058%=      5-min Rain = 0
KHA3 211410Z 18010KT 28/19 A2996 RMK A01 T02810189  RH  057%=      5-min Rain = 0
KHA3 211411Z 18011KT 28/19 A2996 RMK A01 T02810189  RH  057%=      5-min Rain = 0
KHA3 211412Z 19011KT 28/19 A2996 RMK A01 T02800189  RH  058%=      5-min Rain = 0
KHA3 211413Z 19011KT 28/19 A2996 RMK A01 T02800190  RH  058%=      5-min Rain = 0
KHA3 211414Z 19010KT 28/19 A2996 RMK A01 T02800190  RH  058%=      5-min Rain = 0
KHA3 211415Z 18009KT 28/19 A2996 RMK A01 T02800190  RH  058%=      5-min Rain = 0
KHA3 211416Z 17009KT 28/19 A2996 RMK A01 T02800190  RH  058%=      5-min Rain = 0
KHA3 211417Z 18010KT 28/19 A2996 RMK A01 T02810191  RH  058%=      5-min Rain = 0
KHA3 211418Z 17009KT 28/19 A2996 RMK A01 T02820191  RH  058%=      5-min Rain = 0
KHA3 211419Z 17008KT 28/19 A2996 RMK A01 T02830192  RH  058%=      5-min Rain = 0
KHA3 211420Z 16007KT 28/19 A2996 RMK A01 T02840191  RH  057%=      5-min Rain = 0
KHA3 211421Z 18007KT 28/19 A2996 RMK A01 T02840194  RH  058%=      5-min Rain = 0
KHA3 211422Z 19007KT 29/19 A2996 RMK A01 T02860192  RH  057%=      5-min Rain = 0
KHA3 211423Z 18007KT 29/19 A2996 RMK A01 T02870193  RH  057%=      5-min Rain = 0
KHA3 211424Z 18007KT 29/19 A2996 RMK A01 T02880192  RH  056%=      5-min Rain = 0
KHA3 211425Z 17008KT 29/19 A2996 RMK A01 T02890192  RH  056%=      5-min Rain = 0
KHA3 211426Z 19007KT 29/19 A2996 RMK A01 T02890193  RH  056%=      5-min Rain = 0
KHA3 211427Z 18008KT 29/19 A2996 RMK A01 T02890193  RH  056%=      5-min Rain = 0
KHA3 211428Z 17010KT 29/19 A2996 RMK A01 T02900193  RH  056%=      5-min Rain = 0
KHA3 211429Z 18012KT 29/19 A2996 RMK A01 T02920193  RH  055%=      5-min Rain = 0
KHA3 211430Z 18010KT 29/19 A2996 RMK A01 T02930192  RH  054%=      5-min Rain = 0
KHA3 211431Z 18012KT 29/19 A2996 RMK A01 T02930193  RH  055%=      5-min Rain = 0
KHA3 211432Z 19010KT 29/19 A2996 RMK A01 T02940190  RH  054%=      5-min Rain = 0
KHA3 211433Z 20010KT 30/19 A2996 RMK A01 T02960191  RH  053%=      5-min Rain = 0
KHA3 211434Z 18013KT 30/19 A2996 RMK A01 T02970190  RH  053%=      5-min Rain = 0
KHA3 211435Z 20012KT 30/19 A2996 RMK A01 T02980188  RH  051%=      5-min Rain = 0
KHA3 211436Z 23010KT 30/19 A2996 RMK A01 T02980187  RH  051%=      5-min Rain = 0
KHA3 211437Z 20010G15KT 30/19 A2996 RMK A01 T02980188  RH  051%=      5-min Rain = 0
KHA3 211438Z 19013KT 30/19 A2996 RMK A01 T02990185  RH  051%=      5-min Rain = 0
KHA3 211439Z 20013KT 30/18 A2996 RMK A01 T02980183  RH  050%=      5-min Rain = 0
KHA3 211440Z 21012KT 30/18 A2996 RMK A01 T02960183  RH  051%=      5-min Rain = 0
KHA3 211441Z 20013KT 30/18 A2996 RMK A01 T02960184  RH  051%=      5-min Rain = 0
KHA3 211442Z 20011KT 30/18 A2996 RMK A01 T02970184  RH  051%=      5-min Rain = 0
KHA3 211443Z 21010KT 30/18 A2996 RMK A01 T02980184  RH  051%=      5-min Rain = 0
KHA3 211444Z 20010KT 30/19 A2996 RMK A01 T02990187  RH  051%=      5-min Rain = 0
KHA3 211445Z 21012KT 30/19 A2996 RMK A01 T03020186  RH  050%=      5-min Rain = 0
KHA3 211446Z 21010KT 30/19 A2996 RMK A01 T03020186  RH  050%=      5-min Rain = 0
KHA3 211447Z 20012KT 30/19 A2996 RMK A01 T03010188  RH  051%=      5-min Rain = 0
KHA3 211448Z 20011KT 30/19 A2996 RMK A01 T03030185  RH  049%=      5-min Rain = 0
KHA3 211449Z 20015KT 30/18 A2996 RMK A01 T03020184  RH  049%=      5-min Rain = 0
KHA3 211450Z 20013KT 30/18 A2996 RMK A01 T03010184  RH  049%=      5-min Rain = 0
KHA3 211451Z 21013KT 30/18 A2996 RMK A01 T03010183  RH  049%=      5-min Rain = 0
KHA3 211452Z 21014KT 30/18 A2996 RMK A01 T03010182  RH  049%=      5-min Rain = 0
KHA3 211453Z 21012KT 30/18 A2996 RMK A01 T03010183  RH  049%=      5-min Rain = 0
KHA3 211454Z 21013KT 30/18 A2996 RMK A01 T03000184  RH  050%=      5-min Rain = 0
KHA3 211455Z 21013KT 30/18 A2996 RMK A01 T03010184  RH  050%=      5-min Rain = 0
KHA3 211456Z 19012KT 30/19 A2996 RMK A01 T03010185  RH  050%=      5-min Rain = 0
KHA3 211457Z 19012KT 30/19 A2996 RMK A01 T03030185  RH  049%=      5-min Rain = 0
KHA3 211458Z 21014KT 30/18 A2996 RMK A01 T03040184  RH  049%=      5-min Rain = 0
KHA3 211459Z 21010KT 30/18 A2996 RMK A01 T03040184  RH  049%=      5-min Rain = 0
KHA3 211500Z 21011KT 30/19 A2996 RMK A01 T03040186  RH  049%=      5-min Rain = 0
KHA3 211501Z 20014KT 31/19 A2996 RMK A01 T03070185  RH  048%=      5-min Rain = 0
KHA3 211502Z 20013KT 31/19 A2996 RMK A01 T03070185  RH  048%=      5-min Rain = 0
KHA3 211503Z 19014KT 31/18 A2996 RMK A01 T03060184  RH  048%=      5-min Rain = 0
KHA3 211504Z 18013KT 30/19 A2996 RMK A01 T03040185  RH  049%=      5-min Rain = 0
KHA3 211505Z 19013KT 31/19 A2996 RMK A01 T03050185  RH  049%=      5-min Rain = 0
KHA3 211506Z 19013KT 31/19 A2996 RMK A01 T03070185  RH  048%=      5-min Rain = 0
KHA3 211507Z 19012KT 31/18 A2996 RMK A01 T03080184  RH  048%=      5-min Rain = 0
KHA3 211508Z 20014KT 31/19 A2996 RMK A01 T03080185  RH  048%=      5-min Rain = 0
KHA3 211509Z 20014KT 31/18 A2996 RMK A01 T03070184  RH  048%=      5-min Rain = 0
KHA3 211510Z 20012KT 31/18 A2996 RMK A01 T03060184  RH  048%=      5-min Rain = 0
KHA3 211511Z 21012KT 31/18 A2996 RMK A01 T03050183  RH  048%=      5-min Rain = 0
KHA3 211512Z 21012KT 31/18 A2996 RMK A01 T03060183  RH  048%=      5-min Rain = 0
KHA3 211513Z 21013KT 31/19 A2996 RMK A01 T03090186  RH  048%=      5-min Rain = 0
KHA3 211514Z 21012KT 31/18 A2996 RMK A01 T03100184  RH  047%=      5-min Rain = 0
KHA3 211515Z 19012KT 31/19 A2996 RMK A01 T03100185  RH  047%=      5-min Rain = 0
KHA3 211516Z 20013KT 31/19 A2996 RMK A01 T03090185  RH  047%=      5-min Rain = 0
KHA3 211517Z 21011KT 31/19 A2996 RMK A01 T03100185  RH  047%=      5-min Rain = 0
KHA3 211518Z 20014G19KT 31/19 A2996 RMK A01 T03100185  RH  047%=      5-min Rain = 0
KHA3 211519Z 20014KT 31/18 A2996 RMK A01 T03090184  RH  047%=      5-min Rain = 0
KHA3 211520Z 21013G18KT 31/18 A2996 RMK A01 T03080184  RH  047%=      5-min Rain = 0
KHA3 211521Z 20014KT 31/18 A2996 RMK A01 T03080184  RH  048%=      5-min Rain = 0
KHA3 211522Z 20016KT 31/18 A2996 RMK A01 T03080184  RH  048%=      5-min Rain = 0
KHA3 211523Z 20015KT 31/18 A2996 RMK A01 T03080181  RH  047%=      5-min Rain = 0
KHA3 211524Z 21013KT 31/18 A2996 RMK A01 T03080184  RH  048%=      5-min Rain = 0
KHA3 211525Z 20013KT 31/19 A2996 RMK A01 T03090186  RH  048%=      5-min Rain = 0
KHA3 211526Z 20012KT 31/19 A2996 RMK A01 T03100186  RH  048%=      5-min Rain = 0
KHA3 211527Z 17012KT 31/19 A2996 RMK A01 T03110187  RH  048%=      5-min Rain = 0
KHA3 211528Z 17013KT 31/19 A2996 RMK A01 T03110187  RH  048%=      5-min Rain = 0
KHA3 211529Z 18014G19KT 31/19 A2996 RMK A01 T03110187  RH  048%=      5-min Rain = 0
KHA3 211530Z 19017KT 31/19 A2996 RMK A01 T03120187  RH  047%=      5-min Rain = 0
KHA3 211531Z 19015KT 31/19 A2996 RMK A01 T03130186  RH  047%=      5-min Rain = 0
KHA3 211532Z 19013KT 31/18 A2996 RMK A01 T03110184  RH  047%=      5-min Rain = 0
KHA3 211533Z 21010KT 31/19 A2996 RMK A01 T03090187  RH  048%=      5-min Rain = 0
KHA3 211534Z 19013KT 31/19 A2997 RMK A01 T03120187  RH  048%=      5-min Rain = 0
KHA3 211535Z 21012KT 31/19 A2997 RMK A01 T03140185  RH  046%=      5-min Rain = 0
KHA3 211536Z 21015KT 31/19 A2997 RMK A01 T03130185  RH  046%=      5-min Rain = 0
KHA3 211537Z 19015KT 31/18 A2997 RMK A01 T03130184  RH  046%=      5-min Rain = 0
KHA3 211538Z 19015KT 31/19 A2997 RMK A01 T03140185  RH  046%=      5-min Rain = 0
KHA3 211539Z 19016KT 31/19 A2997 RMK A01 T03140185  RH  046%=      5-min Rain = 0
KHA3 211540Z 20015KT 31/19 A2997 RMK A01 T03130185  RH  046%=      5-min Rain = 0
KHA3 211541Z 20015KT 31/18 A2996 RMK A01 T03130184  RH  046%=      5-min Rain = 0
KHA3 211542Z 21014KT 31/18 A2996 RMK A01 T03140184  RH  046%=      5-min Rain = 0
KHA3 211543Z 21013KT 31/18 A2996 RMK A01 T03130184  RH  046%=      5-min Rain = 0
KHA3 211544Z 19012G18KT 32/19 A2996 RMK A01 T03150187  RH  046%=      5-min Rain = 0
KHA3 211545Z 19018KT 32/18 A2996 RMK A01 T03190184  RH  045%=      5-min Rain = 0
KHA3 211546Z 19016KT 32/18 A2996 RMK A01 T03180182  RH  045%=      5-min Rain = 0
KHA3 211547Z 21012KT 32/18 A2996 RMK A01 T03150181  RH  045%=      5-min Rain = 0
KHA3 211548Z 21015KT 31/18 A2996 RMK A01 T03140183  RH  046%=      5-min Rain = 0
KHA3 211549Z 22013KT 31/18 A2996 RMK A01 T03140182  RH  045%=      5-min Rain = 0
KHA3 211550Z 20011KT 31/18 A2996 RMK A01 T03140184  RH  046%=      5-min Rain = 0
KHA3 211551Z 20014KT 32/19 A2996 RMK A01 T03160185  RH  046%=      5-min Rain = 0
KHA3 211552Z 21015KT 32/19 A2996 RMK A01 T03180185  RH  045%=      5-min Rain = 0
KHA3 211553Z 20014KT 32/19 A2996 RMK A01 T03180185  RH  045%=      5-min Rain = 0
KHA3 211554Z 21011KT 32/19 A2996 RMK A01 T03160185  RH  046%=      5-min Rain = 0
KHA3 211555Z 19009KT 31/19 A2996 RMK A01 T03140186  RH  047%=      5-min Rain = 0
KHA3 211556Z 19009G15KT 31/19 A2996 RMK A01 T03140187  RH  047%=      5-min Rain = 0
KHA3 211557Z 20016KT 32/19 A2996 RMK A01 T03170186  RH  046%=      5-min Rain = 0
KHA3 211558Z 21013KT 32/18 A2996 RMK A01 T03170184  RH  045%=      5-min Rain = 0
KHA3 211559Z 21012KT 32/18 A2996 RMK A01 T03170183  RH  045%=      5-min Rain = 0
KHA3 211600Z 21012KT 32/18 A2996 RMK A01 T03190183  RH  045%=      5-min Rain = 0
KHA3 211601Z 19012KT 32/19 A2996 RMK A01 T03200186  RH  045%=      5-min Rain = 0
KHA3 211602Z 19011KT 32/19 A2996 RMK A01 T03200189  RH  046%=      5-min Rain = 0
KHA3 211603Z 20011KT 32/19 A2996 RMK A01 T03230188  RH  045%=      5-min Rain = 0
KHA3 211604Z 20011G17KT 32/19 A2996 RMK A01 T03240188  RH  045%=      5-min Rain = 0
KHA3 211605Z 19013KT 33/19 A2996 RMK A01 T03250187  RH  044%=      5-min Rain = 0
KHA3 211606Z 21014KT 33/19 A2996 RMK A01 T03260186  RH  044%=      5-min Rain = 0
KHA3 211607Z 21012KT 33/19 A2996 RMK A01 T03250185  RH  043%=      5-min Rain = 0
KHA3 211608Z 21015KT 32/18 A2996 RMK A01 T03240184  RH  043%=      5-min Rain = 0
KHA3 211609Z 22012KT 32/19 A2996 RMK A01 T03220185  RH  044%=      5-min Rain = 0
KHA3 211610Z 19014KT 32/19 A2996 RMK A01 T03210186  RH  045%=      5-min Rain = 0
KHA3 211611Z 18013KT 32/19 A2996 RMK A01 T03200188  RH  046%=      5-min Rain = 0
KHA3 211612Z 18012KT 32/19 A2996 RMK A01 T03220190  RH  045%=      5-min Rain = 0
KHA3 211613Z 20011KT 33/19 A2996 RMK A01 T03250189  RH  045%=      5-min Rain = 0
KHA3 211614Z 19014KT 32/19 A2996 RMK A01 T03220188  RH  045%=      5-min Rain = 0
KHA3 211615Z 19013KT 32/19 A2996 RMK A01 T03210187  RH  045%=      5-min Rain = 0
KHA3 211616Z 19016KT 32/19 A2996 RMK A01 T03220187  RH  045%=      5-min Rain = 0
KHA3 211617Z 19015KT 32/19 A2996 RMK A01 T03220187  RH  045%=      5-min Rain = 0
KHA3 211618Z 19014KT 32/19 A2996 RMK A01 T03240186  RH  044%=      5-min Rain = 0
KHA3 211619Z 18014KT 32/19 A2996 RMK A01 T03230188  RH  045%=      5-min Rain = 0
KHA3 211620Z 18014KT 32/19 A2996 RMK A01 T03230187  RH  044%=      5-min Rain = 0
KHA3 211621Z 19012KT 32/19 A2996 RMK A01 T03240187  RH  044%=      5-min Rain = 0
KHA3 211622Z 20016KT 33/19 A2995 RMK A01 T03260186  RH  044%=      5-min Rain = 0
KHA3 211623Z 20013KT 33/19 A2996 RMK A01 T03270186  RH  043%=      5-min Rain = 0
KHA3 211624Z 20014KT 33/19 A2995 RMK A01 T03260186  RH  044%=      5-min Rain = 0
KHA3 211625Z 19012KT 33/19 A2995 RMK A01 T03250187  RH  044%=      5-min Rain = 0
KHA3 211626Z 18013KT 32/19 A2995 RMK A01 T03240187  RH  044%=      5-min Rain = 0
KHA3 211627Z 17013KT 33/19 A2995 RMK A01 T03250187  RH  044%=      5-min Rain = 0
KHA3 211628Z 17013KT 33/19 A2995 RMK A01 T03260188  RH  044%=      5-min Rain = 0
KHA3 211629Z 17014KT 33/19 A2995 RMK A01 T03280189  RH  044%=      5-min Rain = 0
KHA3 211630Z 20013KT 33/19 A2995 RMK A01 T03300188  RH  043%=      5-min Rain = 0
KHA3 211631Z 20012KT 33/19 A2995 RMK A01 T03320186  RH  042%=      5-min Rain = 0
KHA3 211632Z 18013KT 33/19 A2995 RMK A01 T03330189  RH  043%=      5-min Rain = 0
KHA3 211633Z 19011KT 33/19 A2995 RMK A01 T03310189  RH  043%=      5-min Rain = 0
KHA3 211634Z 19012KT 33/19 A2995 RMK A01 T03320191  RH  044%=      5-min Rain = 0
KHA3 211635Z 19013KT 33/19 A2995 RMK A01 T03330188  RH  042%=      5-min Rain = 0
KHA3 211636Z 20014KT 33/19 A2995 RMK A01 T03320188  RH  043%=      5-min Rain = 0
KHA3 211637Z 21012KT 33/19 A2995 RMK A01 T03340185  RH  041%=      5-min Rain = 0
KHA3 211638Z 19012KT 33/18 A2995 RMK A01 T03340184  RH  041%=      5-min Rain = 0
KHA3 211639Z 18013KT 33/19 A2995 RMK A01 T03330187  RH  042%=      5-min Rain = 0
KHA3 211640Z 19014KT 33/19 A2995 RMK A01 T03320189  RH  043%=      5-min Rain = 0
KHA3 211641Z 17012KT 33/19 A2995 RMK A01 T03340189  RH  042%=      5-min Rain = 0
KHA3 211642Z 18012KT 33/19 A2995 RMK A01 T03340189  RH  042%=      5-min Rain = 0
KHA3 211643Z 20014G19KT 33/19 A2995 RMK A01 T03340187  RH  042%=      5-min Rain = 0
KHA3 211644Z 19015KT 34/18 A2995 RMK A01 T03350183  RH  041%=      5-min Rain = 0
KHA3 211645Z 19017KT 33/18 A2995 RMK A01 T03330182  RH  041%=      5-min Rain = 0
KHA3 211646Z 19013KT 33/18 A2995 RMK A01 T03320182  RH  041%=      5-min Rain = 0
KHA3 211647Z 19013KT 33/18 A2995 RMK A01 T03320183  RH  041%=      5-min Rain = 0
KHA3 211648Z 20012KT 33/19 A2995 RMK A01 T03330185  RH  041%=      5-min Rain = 0
KHA3 211649Z 19010KT 33/19 A2995 RMK A01 T03330188  RH  042%=      5-min Rain = 0
KHA3 211650Z 20009KT 34/19 A2994 RMK A01 T03350189  RH  042%=      5-min Rain = 0
KHA3 211651Z 19014KT 34/19 A2994 RMK A01 T03370188  RH  041%=      5-min Rain = 0
KHA3 211652Z 20014G19KT 34/19 A2994 RMK A01 T03370185  RH  041%=      5-min Rain = 0
KHA3 211653Z 21012KT 34/19 A2994 RMK A01 T03360186  RH  041%=      5-min Rain = 0
KHA3 211654Z 19014KT 34/19 A2994 RMK A01 T03360189  RH  042%=      5-min Rain = 0
KHA3 211655Z 18013KT 34/19 A2994 RMK A01 T03370188  RH  041%=      5-min Rain = 0
KHA3 211656Z 18013KT 34/19 A2994 RMK A01 T03350190  RH  043%=      5-min Rain = 0
KHA3 211657Z 18010KT 33/19 A2994 RMK A01 T03340190  RH  043%=      5-min Rain = 0
KHA3 211658Z 18010KT 34/19 A2994 RMK A01 T03350192  RH  043%=      5-min Rain = 0
KHA3 211659Z 18013KT 34/19 A2994 RMK A01 T03380190  RH  042%=      5-min Rain = 0
KHA3 211700Z 20009KT 34/19 A2994 RMK A01 T03380190  RH  042%=      5-min Rain = 0
KHA3 211701Z 19010KT 34/19 A2994 RMK A01 T03380190  RH  042%=      5-min Rain = 0
KHA3 211702Z 18013KT 34/19 A2994 RMK A01 T03400191  RH  042%=      5-min Rain = 0
KHA3 211703Z 20011KT 34/18 A2994 RMK A01 T03420184  RH  039%=      5-min Rain = 0
KHA3 211704Z 20009KT 34/18 A2994 RMK A01 T03390184  RH  040%=      5-min Rain = 0
KHA3 211705Z 20007KT 34/19 A2994 RMK A01 T03390185  RH  040%=      5-min Rain = 0
KHA3 211706Z 19010G16KT 34/19 A2994 RMK A01 T03420187  RH  040%=      5-min Rain = 0
KHA3 211707Z 19014KT 34/19 A2994 RMK A01 T03440190  RH  040%=      5-min Rain = 0
KHA3 211708Z 20013KT 34/19 A2994 RMK A01 T03410189  RH  041%=      5-min Rain = 0
KHA3 211709Z 19013KT 34/19 A2994 RMK A01 T03390190  RH  041%=      5-min Rain = 0
KHA3 211710Z 20010KT 34/19 A2994 RMK A01 T03410192  RH  042%=      5-min Rain = 0
KHA3 211711Z 21011KT 34/19 A2994 RMK A01 T03440191  RH  041%=      5-min Rain = 0
KHA3 211712Z 17012KT 35/19 A2994 RMK A01 T03470192  RH  040%=      5-min Rain = 0
KHA3 211713Z 18012KT 35/19 A2994 RMK A01 T03470190  RH  040%=      5-min Rain = 0
KHA3 211714Z 19013KT 35/19 A2994 RMK A01 T03460190  RH  040%=      5-min Rain = 0
KHA3 211715Z 18014KT 35/19 A2994 RMK A01 T03470189  RH  039%=      5-min Rain = 0
KHA3 211716Z 18012KT 35/19 A2994 RMK A01 T03450189  RH  040%=      5-min Rain = 0
KHA3 211717Z 21012KT 35/19 A2994 RMK A01 T03450188  RH  040%=      5-min Rain = 0
KHA3 211718Z 18013KT 35/19 A2994 RMK A01 T03450188  RH  040%=      5-min Rain = 0
KHA3 211719Z 18012KT 35/19 A2994 RMK A01 T03460191  RH  040%=      5-min Rain = 0
KHA3 211720Z 18013KT 35/19 A2994 RMK A01 T03490189  RH  039%=      5-min Rain = 0
KHA3 211721Z 19009KT 35/19 A2994 RMK A01 T03470191  RH  040%=      5-min Rain = 0
KHA3 211722Z 19010KT 35/19 A2994 RMK A01 T03470188  RH  039%=      5-min Rain = 0
KHA3 211723Z 17013KT 35/19 A2994 RMK A01 T03480192  RH  040%=      5-min Rain = 0
KHA3 211724Z 18011KT 35/19 A2994 RMK A01 T03500190  RH  039%=      5-min Rain = 0
KHA3 211725Z 20009KT 35/19 A2994 RMK A01 T03500191  RH  039%=      5-min Rain = 0
KHA3 211726Z 20012KT 35/19 A2994 RMK A01 T03510190  RH  039%=      5-min Rain = 0
KHA3 211727Z 20013KT 35/19 A2994 RMK A01 T03520189  RH  038%=      5-min Rain = 0
KHA3 211728Z 21012KT 35/19 A2994 RMK A01 T03530189  RH  038%=      5-min Rain = 0
KHA3 211729Z 19009KT 35/19 A2994 RMK A01 T03530190  RH  039%=      5-min Rain = 0
KHA3 211730Z 19011KT 35/19 A2994 RMK A01 T03520191  RH  039%=      5-min Rain = 0
KHA3 211731Z 18011KT 35/19 A2994 RMK A01 T03520189  RH  038%=      5-min Rain = 0
KHA3 211732Z 18011KT 35/18 A2994 RMK A01 T03510184  RH  037%=      5-min Rain = 0
KHA3 211733Z 19014KT 35/19 A2994 RMK A01 T03510186  RH  038%=      5-min Rain = 0
KHA3 211734Z 19013KT 35/19 A2994 RMK A01 T03520185  RH  037%=      5-min Rain = 0
KHA3 211735Z 21012KT 35/19 A2994 RMK A01 T03520188  RH  038%=      5-min Rain = 0
KHA3 211736Z 21009KT 35/19 A2994 RMK A01 T03520188  RH  038%=      5-min Rain = 0
KHA3 211737Z 20008KT 35/19 A2994 RMK A01 T03510189  RH  038%=      5-min Rain = 0
KHA3 211738Z 19008KT 35/19 A2993 RMK A01 T03510188  RH  038%=      5-min Rain = 0
KHA3 211739Z 16010G15KT 35/19 A2993 RMK A01 T03510190  RH  039%=      5-min Rain = 0
KHA3 211740Z 19014KT 36/19 A2993 RMK A01 T03550185  RH  037%=      5-min Rain = 0
KHA3 211741Z 19013KT 36/18 A2993 RMK A01 T03550180  RH  036%=      5-min Rain = 0
KHA3 211742Z 18011KT 36/18 A2993 RMK A01 T03560179  RH  035%=      5-min Rain = 0
KHA3 211743Z 16010KT 36/18 A2993 RMK A01 T03560176  RH  035%=      5-min Rain = 0
KHA3 211744Z 17009KT 36/18 A2993 RMK A01 T03550177  RH  035%=      5-min Rain = 0
KHA3 211745Z 17009KT 36/18 A2993 RMK A01 T03550182  RH  036%=      5-min Rain = 0
KHA3 211746Z 17009KT 35/19 A2993 RMK A01 T03540189  RH  038%=      5-min Rain = 0
KHA3 211747Z 19007KT 36/19 A2993 RMK A01 T03560186  RH  037%=      5-min Rain = 0
KHA3 211748Z 20010KT 36/19 A2993 RMK A01 T03550188  RH  037%=      5-min Rain = 0
KHA3 211749Z 19012KT 36/18 A2994 RMK A01 T03570181  RH  036%=      5-min Rain = 0
KHA3 211750Z 20009G14KT 35/18 A2994 RMK A01 T03540179  RH  036%=      5-min Rain = 0
KHA3 211751Z 20010KT 35/18 A2994 RMK A01 T03530178  RH  036%=      5-min Rain = 0
KHA3 211752Z 18010G15KT 35/18 A2994 RMK A01 T03540181  RH  036%=      5-min Rain = 0
KHA3 211753Z 19010G15KT 36/18 A2994 RMK A01 T03560183  RH  036%=      5-min Rain = 0
KHA3 211754Z 19008KT 36/19 A2994 RMK A01 T03560186  RH  037%=      5-min Rain = 0
KHA3 211755Z 18007KT 36/18 A2994 RMK A01 T03560183  RH  036%=      5-min Rain = 0
KHA3 211756Z 19008KT 36/18 A2994 RMK A01 T03550184  RH  037%=      5-min Rain = 0
KHA3 211757Z 20012KT 36/18 A2993 RMK A01 T03560180  RH  035%=      5-min Rain = 0
KHA3 211758Z 20014KT 36/18 A2993 RMK A01 T03590181  RH  035%=      5-min Rain = 0
KHA3 211759Z 18010KT 36/18 A2993 RMK A01 T03630184  RH  035%=      5-min Rain = 0
KHA3 211800Z 18011KT 37/18 A2993 RMK A01 T03650182  RH  034%=      5-min Rain = 0
KHA3 211801Z 16012KT 36/18 A2994 RMK A01 T03640178  RH  034%=      5-min Rain = 0
KHA3 211802Z 17014KT 36/18 A2994 RMK A01 T03620180  RH  034%=      5-min Rain = 0
KHA3 211803Z 17011KT 36/18 A2994 RMK A01 T03610178  RH  034%=      5-min Rain = 0
KHA3 211804Z 17012KT 36/18 A2994 RMK A01 T03590179  RH  035%=      5-min Rain = 0
KHA3 211805Z 17009KT 36/18 A2994 RMK A01 T03600176  RH  034%=      5-min Rain = 0
KHA3 211806Z 18014KT 36/18 A2993 RMK A01 T03590178  RH  034%=      5-min Rain = 0
KHA3 211807Z 19012KT 36/17 A2993 RMK A01 T03610174  RH  033%=      5-min Rain = 0
KHA3 211808Z 18010KT 36/17 A2994 RMK A01 T03580173  RH  034%=      5-min Rain = 0
KHA3 211809Z 19010G15KT 36/18 A2993 RMK A01 T03560178  RH  035%=      5-min Rain = 0
KHA3 211810Z 18014KT 36/18 A2993 RMK A01 T03590177  RH  034%=      5-min Rain = 0
KHA3 211811Z 18014KT 36/18 A2993 RMK A01 T03610177  RH  034%=      5-min Rain = 0
KHA3 211812Z 16014KT 36/18 A2994 RMK A01 T03610180  RH  035%=      5-min Rain = 0
KHA3 211813Z 16012KT 36/18 A2994 RMK A01 T03610179  RH  034%=      5-min Rain = 0
KHA3 211814Z 16007KT 36/18 A2994 RMK A01 T03590177  RH  034%=      5-min Rain = 0
KHA3 211815Z 17010KT 36/18 A2994 RMK A01 T03580180  RH  035%=      5-min Rain = 0
KHA3 211816Z 16009KT 36/18 A2994 RMK A01 T03590179  RH  035%=      5-min Rain = 0
KHA3 211817Z 15008KT 36/18 A2994 RMK A01 T03610179  RH  034%=      5-min Rain = 0
KHA3 211818Z 16006KT 36/18 A2993 RMK A01 T03610179  RH  034%=      5-min Rain = 0
KHA3 211819Z 15009KT 36/18 A2994 RMK A01 T03610180  RH  035%=      5-min Rain = 0
KHA3 211820Z 14012KT 36/17 A2994 RMK A01 T03640174  RH  033%=      5-min Rain = 0
KHA3 211821Z 15009KT 37/17 A2994 RMK A01 T03650171  RH  032%=      5-min Rain = 0
KHA3 211822Z 16010KT 37/17 A2994 RMK A01 T03660174  RH  032%=      5-min Rain = 0
KHA3 211823Z 15011KT 37/18 A2994 RMK A01 T03680176  RH  032%=      5-min Rain = 0
KHA3 211824Z 14012KT 37/17 A2994 RMK A01 T03690168  RH  031%=      5-min Rain = 0
KHA3 211825Z 15009KT 37/17 A2994 RMK A01 T03690166  RH  030%=      5-min Rain = 0
KHA3 211826Z 14009KT 37/17 A2993 RMK A01 T03690168  RH  031%=      5-min Rain = 0
KHA3 211827Z 14008KT 37/17 A2993 RMK A01 T03700173  RH  032%=      5-min Rain = 0
KHA3 211828Z 15010KT 37/17 A2993 RMK A01 T03730170  RH  031%=      5-min Rain = 0
KHA3 211829Z 15010KT 37/17 A2993 RMK A01 T03700172  RH  031%=      5-min Rain = 0
KHA3 211830Z 16009KT 37/17 A2993 RMK A01 T03660170  RH  032%=      5-min Rain = 0
KHA3 211831Z 20010KT 37/17 A2993 RMK A01 T03660170  RH  032%=      5-min Rain = 0
KHA3 211832Z 17012KT 37/17 A2993 RMK A01 T03670168  RH  031%=      5-min Rain = 0
KHA3 211833Z 17013G18KT 37/16 A2993 RMK A01 T03690163  RH  030%=      5-min Rain = 0
KHA3 211834Z 18008KT 37/16 A2993 RMK A01 T03660161  RH  030%=      5-min Rain = 0
KHA3 211835Z 18011KT 37/17 A2993 RMK A01 T03650166  RH  031%=      5-min Rain = 0
KHA3 211836Z 17009KT 37/17 A2993 RMK A01 T03660168  RH  031%=      5-min Rain = 0
KHA3 211837Z 16009KT 37/17 A2993 RMK A01 T03690172  RH  031%=      5-min Rain = 0
KHA3 211838Z 16012KT 37/17 A2993 RMK A01 T03720169  RH  030%=      5-min Rain = 0
KHA3 211839Z 16012KT 37/17 A2993 RMK A01 T03730168  RH  030%=      5-min Rain = 0
KHA3 211840Z 16012KT 37/17 A2993 RMK A01 T03720168  RH  030%=      5-min Rain = 0
KHA3 211841Z 18009KT 37/17 A2993 RMK A01 T03710171  RH  031%=      5-min Rain = 0
KHA3 211842Z 18009G15KT 37/17 A2993 RMK A01 T03720170  RH  030%=      5-min Rain = 0
KHA3 211843Z 16013KT 37/17 A2994 RMK A01 T03730165  RH  029%=      5-min Rain = 0
KHA3 211844Z 16011KT 37/16 A2994 RMK A01 T03720163  RH  029%=      5-min Rain = 0
KHA3 211845Z 17010KT 37/16 A2994 RMK A01 T03710160  RH  029%=      5-min Rain = 0
KHA3 211846Z 17012KT 37/16 A2994 RMK A01 T03730157  RH  028%=      5-min Rain = 0
KHA3 211847Z 18010KT 37/15 A2994 RMK A01 T03720153  RH  027%=      5-min Rain = 0
KHA3 211848Z 18011KT 37/16 A2993 RMK A01 T03710157  RH  028%=      5-min Rain = 0
KHA3 211849Z 18008KT 37/16 A2993 RMK A01 T03690160  RH  029%=      5-min Rain = 0
KHA3 211850Z 17011KT 37/16 A2993 RMK A01 T03680160  RH  029%=      5-min Rain = 0
KHA3 211851Z 19008KT 37/16 A2993 RMK A01 T03680156  RH  029%=      5-min Rain = 0
KHA3 211852Z 18006KT 36/16 A2993 RMK A01 T03640162  RH  030%=      5-min Rain = 0
KHA3 211853Z 19008KT 37/16 A2993 RMK A01 T03670164  RH  030%=      5-min Rain = 0
KHA3 211854Z 17013KT 37/17 A2993 RMK A01 T03720165  RH  030%=      5-min Rain = 0
KHA3 211855Z 12006KT 37/16 A2994 RMK A01 T03720162  RH  029%=      5-min Rain = 0
KHA3 211856Z 12007KT 37/16 A2993 RMK A01 T03700164  RH  030%=      5-min Rain = 0
KHA3 211857Z 13007G12KT 37/17 A2993 RMK A01 T03700169  RH  031%=      5-min Rain = 0
KHA3 211858Z 12008KT 37/17 A2993 RMK A01 T03740167  RH  030%=      5-min Rain = 0
KHA3 211859Z 13008KT 38/17 A2993 RMK A01 T03750168  RH  030%=      5-min Rain = 0
KHA3 211900Z 16012KT 38/16 A2993 RMK A01 T03760162  RH  028%=      5-min Rain = 0
KHA3 211901Z 16012KT 38/16 A2994 RMK A01 T03760159  RH  028%=      5-min Rain = 0
KHA3 211902Z 18010KT 38/16 A2994 RMK A01 T03760158  RH  028%=      5-min Rain = 0
KHA3 211903Z 17009G14KT 38/16 A2994 RMK A01 T03750159  RH  028%=      5-min Rain = 0
KHA3 211904Z 18011KT 37/16 A2994 RMK A01 T03730159  RH  028%=      5-min Rain = 0
KHA3 211905Z 15008KT 37/16 A2994 RMK A01 T03710158  RH  029%=      5-min Rain = 0
KHA3 211906Z 13009KT 37/16 A2994 RMK A01 T03690162  RH  029%=      5-min Rain = 0
KHA3 211907Z 13006KT 37/16 A2994 RMK A01 T03680160  RH  029%=      5-min Rain = 0
KHA3 211908Z 19004KT 37/16 A2994 RMK A01 T03670161  RH  029%=      5-min Rain = 0
KHA3 211909Z 20003KT 37/16 A2994 RMK A01 T03680160  RH  029%=      5-min Rain = 0
KHA3 211910Z 20006KT 37/16 A2994 RMK A01 T03690162  RH  030%=      5-min Rain = 0
KHA3 211911Z 17006KT 37/16 A2993 RMK A01 T03690161  RH  029%=      5-min Rain = 0
KHA3 211912Z 12007KT 37/16 A2993 RMK A01 T03700162  RH  029%=      5-min Rain = 0
KHA3 211913Z 18006KT 37/16 A2993 RMK A01 T03700163  RH  030%=      5-min Rain = 0
KHA3 211914Z 18007KT 37/16 A2993 RMK A01 T03700161  RH  029%=      5-min Rain = 0
KHA3 211915Z 16005KT 37/17 A2993 RMK A01 T03700165  RH  030%=      5-min Rain = 0
KHA3 211916Z 15007KT 37/16 A2993 RMK A01 T03730162  RH  029%=      5-min Rain = 0
KHA3 211917Z 14007KT 38/16 A2993 RMK A01 T03760160  RH  028%=      5-min Rain = 0
KHA3 211918Z 16010G15KT 38/16 A2993 RMK A01 T03780157  RH  027%=      5-min Rain = 0
KHA3 211919Z 17013KT 38/16 A2993 RMK A01 T03790160  RH  028%=      5-min Rain = 0
KHA3 211920Z 17011G16KT 38/16 A2993 RMK A01 T03800161  RH  028%=      5-min Rain = 0
KHA3 211921Z 19013KT 38/16 A2993 RMK A01 T03800157  RH  027%=      5-min Rain = 0
KHA3 211922Z 20007KT 38/16 A2993 RMK A01 T03760157  RH  028%=      5-min Rain = 0
KHA3 211923Z 21006KT 37/16 A2993 RMK A01 T03730160  RH  028%=      5-min Rain = 0
KHA3 211924Z 20009KT 37/15 A2993 RMK A01 T03740154  RH  027%=      5-min Rain = 0
KHA3 211925Z 18010KT 38/15 A2993 RMK A01 T03750154  RH  027%=      5-min Rain = 0
KHA3 211926Z 16012KT 37/15 A2993 RMK A01 T03740150  RH  027%=      5-min Rain = 0
KHA3 211927Z 14010KT 38/15 A2993 RMK A01 T03780152  RH  026%=      5-min Rain = 0
KHA3 211928Z 13010KT 38/15 A2993 RMK A01 T03800149  RH  026%=      5-min Rain = 0
KHA3 211929Z 13011KT 38/15 A2993 RMK A01 T03800154  RH  026%=      5-min Rain = 0
KHA3 211930Z 13011G16KT 38/15 A2993 RMK A01 T03800152  RH  026%=      5-min Rain = 0
KHA3 211931Z 15013KT 38/15 A2993 RMK A01 T03780149  RH  026%=      5-min Rain = 0
KHA3 211932Z 16008KT 38/15 A2993 RMK A01 T03760149  RH  026%=      5-min Rain = 0
KHA3 211933Z 15010KT 38/15 A2993 RMK A01 T03750150  RH  026%=      5-min Rain = 0
KHA3 211934Z 15006KT 38/15 A2993 RMK A01 T03780152  RH  026%=      5-min Rain = 0
KHA3 211935Z 17008KT 38/15 A2993 RMK A01 T03800151  RH  026%=      5-min Rain = 0
KHA3 211936Z 18006KT 38/15 A2993 RMK A01 T03810152  RH  026%=      5-min Rain = 0
KHA3 211937Z 15009G14KT 38/15 A2993 RMK A01 T03810152  RH  026%=      5-min Rain = 0
KHA3 211938Z 14014KT 38/15 A2993 RMK A01 T03810151  RH  026%=      5-min Rain = 0
KHA3 211939Z 15010G15KT 38/15 A2993 RMK A01 T03810149  RH  025%=      5-min Rain = 0
KHA3 211940Z 16010G15KT 38/15 A2993 RMK A01 T03830153  RH  026%=      5-min Rain = 0
KHA3 211941Z 15012KT 38/14 A2993 RMK A01 T03840143  RH  024%=      5-min Rain = 0
KHA3 211942Z 14011KT 38/14 A2993 RMK A01 T03800143  RH  025%=      5-min Rain = 0
KHA3 211943Z 14010KT 38/14 A2993 RMK A01 T03770141  RH  025%=      5-min Rain = 0
KHA3 211944Z 14007KT 38/15 A2993 RMK A01 T03770148  RH  026%=      5-min Rain = 0
KHA3 211945Z 12006KT 38/15 A2993 RMK A01 T03820147  RH  025%=      5-min Rain = 0
KHA3 211946Z 15009KT 38/15 A2993 RMK A01 T03830146  RH  025%=      5-min Rain = 0
KHA3 211947Z 15009KT 38/14 A2993 RMK A01 T03820144  RH  024%=      5-min Rain = 0
KHA3 211948Z 16011KT 38/15 A2993 RMK A01 T03800145  RH  025%=      5-min Rain = 0
KHA3 211949Z 16010KT 38/14 A2993 RMK A01 T03800143  RH  025%=      5-min Rain = 0
KHA3 211950Z 15013KT 38/15 A2993 RMK A01 T03790146  RH  025%=      5-min Rain = 0
KHA3 211951Z 16011KT 38/15 A2993 RMK A01 T03800145  RH  025%=      5-min Rain = 0
KHA3 211952Z 17008KT 38/15 A2993 RMK A01 T03790146  RH  025%=      5-min Rain = 0
KHA3 211953Z 14016KT 38/14 A2993 RMK A01 T03790144  RH  025%=      5-min Rain = 0
KHA3 211954Z 14015KT 38/14 A2993 RMK A01 T03790142  RH  025%=      5-min Rain = 0
KHA3 211955Z 13014KT 38/14 A2993 RMK A01 T03780144  RH  025%=      5-min Rain = 0
KHA3 211956Z 12014KT 38/15 A2993 RMK A01 T03820146  RH  025%=      5-min Rain = 0
KHA3 211957Z 11011KT 38/14 A2993 RMK A01 T03840144  RH  024%=      5-min Rain = 0
KHA3 211958Z 12009KT 38/14 A2993 RMK A01 T03830141  RH  024%=      5-min Rain = 0
KHA3 211959Z 16008KT 38/14 A2993 RMK A01 T03810142  RH  024%=      5-min Rain = 0
KHA3 212000Z 13009KT 38/14 A2993 RMK A01 T03800144  RH  025%=      5-min Rain = 0
KHA3 212001Z 14012KT 38/14 A2993 RMK A01 T03830143  RH  024%=      5-min Rain = 0
KHA3 212002Z 14011KT 38/14 A2993 RMK A01 T03820139  RH  024%=      5-min Rain = 0
KHA3 212003Z 16010KT 38/14 A2993 RMK A01 T03810140  RH  024%=      5-min Rain = 0
KHA3 212004Z 17008KT 38/14 A2993 RMK A01 T03790138  RH  024%=      5-min Rain = 0
KHA3 212005Z 15010G15KT 38/14 A2993 RMK A01 T03790143  RH  025%=      5-min Rain = 0
KHA3 212006Z 14012KT 38/14 A2993 RMK A01 T03820144  RH  024%=      5-min Rain = 0
KHA3 212007Z 15012KT 39/14 A2993 RMK A01 T03860144  RH  024%=      5-min Rain = 0
KHA3 212008Z 15014KT 39/15 A2993 RMK A01 T03870145  RH  024%=      5-min Rain = 0
KHA3 212009Z 15014KT 39/14 A2993 RMK A01 T03860139  RH  023%=      5-min Rain = 0
KHA3 212010Z 15012G17KT 38/14 A2993 RMK A01 T03830136  RH  023%=      5-min Rain = 0
KHA3 212011Z 13012KT 38/14 A2993 RMK A01 T03800136  RH  023%=      5-min Rain = 0
KHA3 212012Z 14007KT 38/14 A2993 RMK A01 T03790135  RH  023%=      5-min Rain = 0
KHA3 212013Z 16007KT 38/14 A2993 RMK A01 T03800140  RH  024%=      5-min Rain = 0
KHA3 212014Z 14013KT 38/14 A2993 RMK A01 T03840138  RH  023%=      5-min Rain = 0
KHA3 212015Z 14011KT 38/14 A2993 RMK A01 T03830135  RH  023%=      5-min Rain = 0
KHA3 212016Z 13010KT 38/14 A2993 RMK A01 T03820137  RH  023%=      5-min Rain = 0
KHA3 212017Z 12011KT 38/13 A2993 RMK A01 T03830133  RH  023%=      5-min Rain = 0
KHA3 212018Z 11007KT 38/13 A2993 RMK A01 T03820131  RH  022%=      5-min Rain = 0
KHA3 212019Z 12005KT 38/13 A2993 RMK A01 T03800133  RH  023%=      5-min Rain = 0
KHA3 212020Z 15008KT 38/14 A2993 RMK A01 T03810136  RH  023%=      5-min Rain = 0
KHA3 212021Z 14013KT 38/14 A2993 RMK A01 T03820137  RH  023%=      5-min Rain = 0
KHA3 212022Z 14010KT 38/14 A2993 RMK A01 T03800136  RH  024%=      5-min Rain = 0
KHA3 212023Z 13009KT 38/14 A2993 RMK A01 T03790137  RH  024%=      5-min Rain = 0
KHA3 212024Z 12009KT 38/14 A2993 RMK A01 T03790141  RH  024%=      5-min Rain = 0
KHA3 212025Z 11008KT 38/14 A2993 RMK A01 T03820140  RH  024%=      5-min Rain = 0
KHA3 212026Z 14010G16KT 38/15 A2993 RMK A01 T03830145  RH  025%=      5-min Rain = 0
KHA3 212027Z 15013KT 39/14 A2993 RMK A01 T03860141  RH  024%=      5-min Rain = 0
KHA3 212028Z 14011KT 38/14 A2993 RMK A01 T03800138  RH  024%=      5-min Rain = 0
KHA3 212029Z 18013KT 38/14 A2993 RMK A01 T03790142  RH  024%=      5-min Rain = 0
KHA3 212030Z 18009KT 38/14 A2993 RMK A01 T03790140  RH  024%=      5-min Rain = 0
KHA3 212031Z 17009KT 38/14 A2993 RMK A01 T03790142  RH  025%=      5-min Rain = 0
KHA3 212032Z 16007KT 38/14 A2993 RMK A01 T03800140  RH  024%=      5-min Rain = 0
KHA3 212033Z 15011KT 38/15 A2992 RMK A01 T03810148  RH  025%=      5-min Rain = 0
KHA3 212034Z 15014KT 39/14 A2993 RMK A01 T03850142  RH  024%=      5-min Rain = 0
KHA3 212035Z 15010KT 39/15 A2993 RMK A01 T03870147  RH  024%=      5-min Rain = 0
KHA3 212036Z 13011KT 39/14 A2993 RMK A01 T03890141  RH  023%=      5-min Rain = 0
KHA3 212037Z 16011KT 39/14 A2993 RMK A01 T03880138  RH  023%=      5-min Rain = 0
KHA3 212038Z 13008KT 39/13 A2993 RMK A01 T03850134  RH  023%=      5-min Rain = 0
KHA3 212039Z 14013KT 39/14 A2993 RMK A01 T03850136  RH  023%=      5-min Rain = 0
KHA3 212040Z 12013KT 39/13 A2993 RMK A01 T03850131  RH  022%=      5-min Rain = 0
KHA3 212041Z 12010KT 38/13 A2993 RMK A01 T03830132  RH  023%=      5-min Rain = 0
KHA3 212042Z 13011G17KT 38/14 A2992 RMK A01 T03840138  RH  023%=      5-min Rain = 0
KHA3 212043Z 13014KT 39/14 A2992 RMK A01 T03890135  RH  022%=      5-min Rain = 0
KHA3 212044Z 12013KT 39/13 A2992 RMK A01 T03850130  RH  022%=      5-min Rain = 0
KHA3 212045Z 13012KT 38/13 A2992 RMK A01 T03810133  RH  023%=      5-min Rain = 0
KHA3 212046Z 12010KT 38/13 A2992 RMK A01 T03810133  RH  023%=      5-min Rain = 0
KHA3 212047Z 12011G17KT 38/13 A2992 RMK A01 T03830134  RH  023%=      5-min Rain = 0
KHA3 212048Z 13013KT 38/13 A2992 RMK A01 T03830128  RH  022%=      5-min Rain = 0
KHA3 212049Z 12010KT 38/13 A2992 RMK A01 T03800128  RH  022%=      5-min Rain = 0
KHA3 212050Z 13011KT 38/13 A2992 RMK A01 T03780131  RH  023%=      5-min Rain = 0
KHA3 212051Z 13007KT 38/13 A2992 RMK A01 T03800134  RH  023%=      5-min Rain = 0
KHA3 212052Z 16005KT 38/13 A2992 RMK A01 T03830131  RH  022%=      5-min Rain = 0
KHA3 212053Z 12006KT 38/13 A2992 RMK A01 T03830133  RH  023%=      5-min Rain = 0
KHA3 212054Z 11008KT 38/13 A2992 RMK A01 T03820132  RH  023%=      5-min Rain = 0
KHA3 212055Z 12007KT 38/13 A2992 RMK A01 T03820134  RH  023%=      5-min Rain = 0
KHA3 212056Z 12007KT 38/13 A2992 RMK A01 T03820131  RH  022%=      5-min Rain = 0
KHA3 212057Z 15010KT 38/14 A2992 RMK A01 T03820137  RH  023%=      5-min Rain = 0
KHA3 212058Z 15009KT 39/14 A2992 RMK A01 T03850136  RH  023%=      5-min Rain = 0
KHA3 212059Z 17013KT 39/14 A2992 RMK A01 T03890138  RH  023%=      5-min Rain = 0
KHA3 212100Z 17013KT 39/13 A2992 RMK A01 T03890133  RH  022%=      5-min Rain = 0
KHA3 212101Z 16012KT 39/13 A2992 RMK A01 T03860129  RH  022%=      5-min Rain = 0
KHA3 212102Z 17011KT 38/13 A2992 RMK A01 T03830133  RH  023%=      5-min Rain = 0
KHA3 212103Z 17009KT 38/13 A2992 RMK A01 T03820131  RH  022%=      5-min Rain = 0
KHA3 212104Z 17009KT 38/13 A2992 RMK A01 T03810129  RH  022%=      5-min Rain = 0
KHA3 212105Z 13009KT 38/13 A2992 RMK A01 T03810128  RH  022%=      5-min Rain = 0
KHA3 212106Z 12011G16KT 38/13 A2992 RMK A01 T03840130  RH  022%=      5-min Rain = 0
KHA3 212107Z 13011KT 39/13 A2992 RMK A01 T03860125  RH  021%=      5-min Rain = 0
KHA3 212108Z 13009KT 38/13 A2992 RMK A01 T03830131  RH  022%=      5-min Rain = 0
KHA3 212109Z 16013KT 38/14 A2992 RMK A01 T03830136  RH  023%=      5-min Rain = 0
KHA3 212110Z 16012KT 38/13 A2992 RMK A01 T03830133  RH  023%=      5-min Rain = 0
KHA3 212111Z 15014G19KT 38/13 A2992 RMK A01 T03810132  RH  023%=      5-min Rain = 0
KHA3 212112Z 15014KT 38/13 A2992 RMK A01 T03810127  RH  022%=      5-min Rain = 0
KHA3 212113Z 16011KT 38/13 A2992 RMK A01 T03800127  RH  022%=      5-min Rain = 0
KHA3 212114Z 17012KT 38/13 A2991 RMK A01 T03800127  RH  022%=      5-min Rain = 0
KHA3 212115Z 16014KT 38/13 A2991 RMK A01 T03820128  RH  022%=      5-min Rain = 0
KHA3 212116Z 16015KT 38/13 A2991 RMK A01 T03830128  RH  022%=      5-min Rain = 0
KHA3 212117Z 15012KT 38/13 A2992 RMK A01 T03830128  RH  022%=      5-min Rain = 0
KHA3 212118Z 15006KT 38/12 A2991 RMK A01 T03820124  RH  021%=      5-min Rain = 0
KHA3 212119Z 17005KT 38/13 A2991 RMK A01 T03800126  RH  022%=      5-min Rain = 0
KHA3 212120Z 18006KT 38/12 A2991 RMK A01 T03800121  RH  021%=      5-min Rain = 0
KHA3 212121Z 17012KT 38/13 A2991 RMK A01 T03820129  RH  022%=      5-min Rain = 0
KHA3 212122Z 18012KT 39/13 A2991 RMK A01 T03850125  RH  021%=      5-min Rain = 0
KHA3 212123Z 18010KT 39/13 A2991 RMK A01 T03860127  RH  021%=      5-min Rain = 0
KHA3 212124Z 17012KT 39/13 A2991 RMK A01 T03860128  RH  021%=      5-min Rain = 0
KHA3 212125Z 17010KT 39/13 A2991 RMK A01 T03880128  RH  021%=      5-min Rain = 0
KHA3 212126Z 12010KT 39/13 A2991 RMK A01 T03870127  RH  021%=      5-min Rain = 0
KHA3 212127Z 13011KT 39/13 A2991 RMK A01 T03870128  RH  021%=      5-min Rain = 0
KHA3 212128Z 13009KT 39/13 A2991 RMK A01 T03870134  RH  022%=      5-min Rain = 0
KHA3 212129Z 15011KT 39/13 A2991 RMK A01 T03900130  RH  021%=      5-min Rain = 0
KHA3 212130Z 15007KT 39/12 A2991 RMK A01 T03890124  RH  021%=      5-min Rain = 0
KHA3 212131Z 15007KT 39/13 A2991 RMK A01 T03860131  RH  022%=      5-min Rain = 0
KHA3 212132Z 16012KT 39/13 A2991 RMK A01 T03870134  RH  022%=      5-min Rain = 0
KHA3 212133Z 14008KT 39/13 A2991 RMK A01 T03860133  RH  022%=      5-min Rain = 0
KHA3 212134Z 13008KT 39/13 A2991 RMK A01 T03850132  RH  022%=      5-min Rain = 0
KHA3 212135Z 16009KT 39/13 A2991 RMK A01 T03850130  RH  022%=      5-min Rain = 0
KHA3 212136Z 17011KT 39/13 A2991 RMK A01 T03860132  RH  022%=      5-min Rain = 0
KHA3 212137Z 17013KT 39/13 A2991 RMK A01 T03880127  RH  021%=      5-min Rain = 0
KHA3 212138Z 17012KT 39/13 A2991 RMK A01 T03870127  RH  021%=      5-min Rain = 0
KHA3 212139Z 16013KT 39/13 A2991 RMK A01 T03870125  RH  021%=      5-min Rain = 0
KHA3 212140Z 16009KT 39/13 A2991 RMK A01 T03850126  RH  021%=      5-min Rain = 0
KHA3 212141Z 16013KT 39/13 A2991 RMK A01 T03850128  RH  022%=      5-min Rain = 0
KHA3 212142Z 15009KT 39/13 A2991 RMK A01 T03870126  RH  021%=      5-min Rain = 0
KHA3 212143Z 14008KT 39/13 A2991 RMK A01 T03870132  RH  022%=      5-min Rain = 0
KHA3 212144Z 13009KT 39/13 A2991 RMK A01 T03870130  RH  022%=      5-min Rain = 0
KHA3 212145Z 13008KT 39/13 A2991 RMK A01 T03870127  RH  021%=      5-min Rain = 0
KHA3 212146Z 13013KT 39/13 A2991 RMK A01 T03850128  RH  022%=      5-min Rain = 0
KHA3 212147Z 14010KT 38/13 A2991 RMK A01 T03840128  RH  022%=      5-min Rain = 0
KHA3 212148Z 13008KT 39/13 A2991 RMK A01 T03850128  RH  022%=      5-min Rain = 0
KHA3 212149Z 14011KT 39/13 A2991 RMK A01 T03860130  RH  022%=      5-min Rain = 0
KHA3 212150Z 12013KT 39/13 A2991 RMK A01 T03860125  RH  021%=      5-min Rain = 0
KHA3 212151Z 12010KT 38/13 A2991 RMK A01 T03840125  RH  021%=      5-min Rain = 0
KHA3 212152Z 14008KT 38/13 A2991 RMK A01 T03820126  RH  022%=      5-min Rain = 0
KHA3 212153Z 15009KT 38/13 A2991 RMK A01 T03830132  RH  022%=      5-min Rain = 0
KHA3 212154Z 14008KT 39/13 A2991 RMK A01 T03860126  RH  021%=      5-min Rain = 0
KHA3 212155Z 13008KT 38/13 A299 RMK A01 T03840127  RH  022%=      5-min Rain = 0
KHA3 212156Z 11009G14KT 38/13 A299 RMK A01 T03840129  RH  022%=      5-min Rain = 0
KHA3 212157Z 12012KT 39/13 A299 RMK A01 T03850128  RH  022%=      5-min Rain = 0
KHA3 212158Z 12012KT 39/13 A299 RMK A01 T03860128  RH  022%=      5-min Rain = 0
KHA3 212159Z 13011KT 39/13 A299 RMK A01 T03850127  RH  022%=      5-min Rain = 0
KHA3 212200Z 14012KT 39/13 A299 RMK A01 T03850126  RH  021%=      5-min Rain = 0
KHA3 212201Z 16009KT 38/12 A299 RMK A01 T03830124  RH  021%=      5-min Rain = 0
KHA3 212202Z 14007KT 38/12 A299 RMK A01 T03820122  RH  021%=      5-min Rain = 0
KHA3 212203Z 13008KT 38/13 A299 RMK A01 T03820125  RH  022%=      5-min Rain = 0
KHA3 212204Z 13009KT 38/13 A299 RMK A01 T03830125  RH  021%=      5-min Rain = 0
KHA3 212205Z 12011KT 38/12 A299 RMK A01 T03830124  RH  021%=      5-min Rain = 0
KHA3 212206Z 12010KT 38/12 A299 RMK A01 T03840124  RH  021%=      5-min Rain = 0
KHA3 212207Z 12012KT 39/12 A299 RMK A01 T03850124  RH  021%=      5-min Rain = 0
KHA3 212208Z 14011KT 39/13 A299 RMK A01 T03850125  RH  021%=      5-min Rain = 0
KHA3 212209Z 14009KT 39/12 A299 RMK A01 T03850124  RH  021%=      5-min Rain = 0
KHA3 212210Z 14012KT 38/12 A299 RMK A01 T03840123  RH  021%=      5-min Rain = 0
KHA3 212211Z 16014KT 38/12 A299 RMK A01 T03830123  RH  021%=      5-min Rain = 0
KHA3 212212Z 15014KT 38/12 A299 RMK A01 T03830123  RH  021%=      5-min Rain = 0
KHA3 212213Z 14012G17KT 38/12 A299 RMK A01 T03830121  RH  021%=      5-min Rain = 0
KHA3 212214Z 14012KT 38/12 A299 RMK A01 T03820120  RH  021%=      5-min Rain = 0
KHA3 212215Z 14011KT 38/12 A299 RMK A01 T03810122  RH  021%=      5-min Rain = 0
KHA3 212216Z 15013KT 38/12 A299 RMK A01 T03820124  RH  021%=      5-min Rain = 0
KHA3 212217Z 15012KT 39/13 A299 RMK A01 T03850125  RH  021%=      5-min Rain = 0
KHA3 212218Z 13011KT 39/12 A299 RMK A01 T03870121  RH  021%=      5-min Rain = 0
KHA3 212219Z 14009KT 39/12 A299 RMK A01 T03860118  RH  020%=      5-min Rain = 0
KHA3 212220Z 16008KT 38/12 A299 RMK A01 T03840122  RH  021%=      5-min Rain = 0
KHA3 212221Z 17009KT 39/12 A299 RMK A01 T03850122  RH  021%=      5-min Rain = 0
KHA3 212222Z 13009KT 39/13 A299 RMK A01 T03870126  RH  021%=      5-min Rain = 0
KHA3 212223Z 14012KT 39/12 A299 RMK A01 T03880122  RH  021%=      5-min Rain = 0
KHA3 212224Z 14011KT 39/12 A299 RMK A01 T03870120  RH  020%=      5-min Rain = 0
KHA3 212225Z 13013KT 39/12 A299 RMK A01 T03850120  RH  021%=      5-min Rain = 0
KHA3 212226Z 13011KT 38/12 A299 RMK A01 T03840120  RH  021%=      5-min Rain = 0
KHA3 212227Z 14009KT 38/12 A299 RMK A01 T03830121  RH  021%=      5-min Rain = 0
KHA3 212228Z 16009KT 38/12 A299 RMK A01 T03830122  RH  021%=      5-min Rain = 0
KHA3 212229Z 14010KT 38/12 A299 RMK A01 T03830122  RH  021%=      5-min Rain = 0
KHA3 212230Z 15008KT 38/12 A299 RMK A01 T03830121  RH  021%=      5-min Rain = 0
KHA3 212231Z 14009KT 38/13 A299 RMK A01 T03840126  RH  022%=      5-min Rain = 0
KHA3 212232Z 13013KT 39/12 A299 RMK A01 T03850124  RH  021%=      5-min Rain = 0
KHA3 212233Z 16009KT 39/12 A299 RMK A01 T03870124  RH  021%=      5-min Rain = 0
KHA3 212234Z 15010KT 39/12 A299 RMK A01 T03870124  RH  021%=      5-min Rain = 0
KHA3 212235Z 16010KT 39/12 A299 RMK A01 T03870123  RH  021%=      5-min Rain = 0
KHA3 212236Z 17010KT 39/12 A299 RMK A01 T03870122  RH  021%=      5-min Rain = 0
KHA3 212237Z 16010KT 39/12 A299 RMK A01 T03860118  RH  020%=      5-min Rain = 0
KHA3 212238Z 17010KT 39/12 A299 RMK A01 T03850118  RH  020%=      5-min Rain = 0
KHA3 212239Z 16011KT 38/12 A299 RMK A01 T03840119  RH  021%=      5-min Rain = 0
KHA3 212240Z 16011KT 38/12 A299 RMK A01 T03840118  RH  020%=      5-min Rain = 0
KHA3 212241Z 15012KT 38/12 A299 RMK A01 T03840123  RH  021%=      5-min Rain = 0
KHA3 212242Z 13011KT 39/12 A299 RMK A01 T03850123  RH  021%=      5-min Rain = 0
KHA3 212243Z 14012KT 38/12 A299 RMK A01 T03830124  RH  021%=      5-min Rain = 0
KHA3 212244Z 15011KT 38/13 A299 RMK A01 T03820125  RH  022%=      5-min Rain = 0
KHA3 212245Z 13008KT 38/12 A299 RMK A01 T03820123  RH  021%=      5-min Rain = 0
KHA3 212246Z 12010KT 38/13 A299 RMK A01 T03810125  RH  022%=      5-min Rain = 0
KHA3 212247Z 11011KT 38/13 A299 RMK A01 T03820127  RH  022%=      5-min Rain = 0
KHA3 212248Z 13015G20KT 39/13 A299 RMK A01 T03850126  RH  021%=      5-min Rain = 0
KHA3 212249Z 16011G17KT 39/13 A299 RMK A01 T03850130  RH  022%=      5-min Rain = 0
KHA3 212250Z 17013KT 39/13 A299 RMK A01 T03850129  RH  022%=      5-min Rain = 0
KHA3 212251Z 15013KT 39/13 A299 RMK A01 T03850128  RH  022%=      5-min Rain = 0
KHA3 212252Z 15012KT 38/12 A299 RMK A01 T03840124  RH  021%=      5-min Rain = 0
KHA3 212253Z 15012KT 38/13 A299 RMK A01 T03830125  RH  021%=      5-min Rain = 0
KHA3 212254Z 15011KT 38/13 A2989 RMK A01 T03830127  RH  022%=      5-min Rain = 0
KHA3 212255Z 13012KT 38/12 A2989 RMK A01 T03820124  RH  021%=      5-min Rain = 0
KHA3 212256Z 15012KT 38/12 A2989 RMK A01 T03810124  RH  022%=      5-min Rain = 0
KHA3 212257Z 16014KT 38/13 A2989 RMK A01 T03810127  RH  022%=      5-min Rain = 0
KHA3 212258Z 17011KT 38/12 A2989 RMK A01 T03820124  RH  021%=      5-min Rain = 0
KHA3 212259Z 16010KT 38/13 A2989 RMK A01 T03820126  RH  022%=      5-min Rain = 0
KHA3 212300Z 16012KT 38/13 A2989 RMK A01 T03820125  RH  022%=      5-min Rain = 0
KHA3 212301Z 17011KT 38/13 A2989 RMK A01 T03820125  RH  022%=      5-min Rain = 0
KHA3 212302Z 18008KT 38/13 A2989 RMK A01 T03810126  RH  022%=      5-min Rain = 0
KHA3 212303Z 17008KT 38/13 A2989 RMK A01 T03810125  RH  022%=      5-min Rain = 0
KHA3 212304Z 16008KT 38/13 A2989 RMK A01 T03800128  RH  022%=      5-min Rain = 0
KHA3 212305Z 13010KT 38/13 A2989 RMK A01 T03820132  RH  023%=      5-min Rain = 0
KHA3 212306Z 12013KT 38/13 A2989 RMK A01 T03840129  RH  022%=      5-min Rain = 0
KHA3 212307Z 13010KT 38/12 A2989 RMK A01 T03830124  RH  021%=      5-min Rain = 0
KHA3 212308Z 14012KT 38/13 A2989 RMK A01 T03810125  RH  022%=      5-min Rain = 0
KHA3 212309Z 15012KT 38/13 A2989 RMK A01 T03800127  RH  022%=      5-min Rain = 0
KHA3 212310Z 12010KT 38/13 A2989 RMK A01 T03800127  RH  022%=      5-min Rain = 0
KHA3 212311Z 16009KT 38/13 A2989 RMK A01 T03810129  RH  022%=      5-min Rain = 0
KHA3 212312Z 16007KT 38/13 A2989 RMK A01 T03820129  RH  022%=      5-min Rain = 0
KHA3 212313Z 15010KT 38/13 A2989 RMK A01 T03840126  RH  022%=      5-min Rain = 0
KHA3 212314Z 15011KT 38/13 A2989 RMK A01 T03820126  RH  022%=      5-min Rain = 0
KHA3 212315Z 15011KT 38/13 A2989 RMK A01 T03810126  RH  022%=      5-min Rain = 0
KHA3 212316Z 15009KT 38/12 A2989 RMK A01 T03800123  RH  022%=      5-min Rain = 0
KHA3 212317Z 16010KT 38/13 A2989 RMK A01 T03790127  RH  022%=      5-min Rain = 0
KHA3 212318Z 18010KT 38/13 A2989 RMK A01 T03800126  RH  022%=      5-min Rain = 0
KHA3 212319Z 17010KT 38/13 A2989 RMK A01 T03800129  RH  022%=      5-min Rain = 0
KHA3 212320Z 16010KT 38/13 A2989 RMK A01 T03810127  RH  022%=      5-min Rain = 0
KHA3 212321Z 16010KT 38/13 A2989 RMK A01 T03810130  RH  023%=      5-min Rain = 0
KHA3 212322Z 14009KT 38/13 A2989 RMK A01 T03810130  RH  022%=      5-min Rain = 0
KHA3 212323Z 14009G15KT 38/13 A2989 RMK A01 T03810129  RH  022%=      5-min Rain = 0
KHA3 212324Z 14012KT 38/13 A2989 RMK A01 T03820126  RH  022%=      5-min Rain = 0
KHA3 212325Z 16011KT 38/13 A2989 RMK A01 T03800125  RH  022%=      5-min Rain = 0
KHA3 212326Z 16009KT 38/13 A2989 RMK A01 T03790125  RH  022%=      5-min Rain = 0
KHA3 212327Z 16009KT 38/12 A2989 RMK A01 T03790122  RH  022%=      5-min Rain = 0
KHA3 212328Z 17009KT 38/12 A2989 RMK A01 T03780122  RH  022%=      5-min Rain = 0
KHA3 212329Z 16009KT 38/12 A2989 RMK A01 T03770122  RH  022%=      5-min Rain = 0
KHA3 212330Z 15007KT 38/12 A2989 RMK A01 T03770124  RH  022%=      5-min Rain = 0
KHA3 212331Z 16008KT 38/13 A2989 RMK A01 T03770127  RH  022%=      5-min Rain = 0
KHA3 212332Z 17007KT 38/13 A2989 RMK A01 T03780130  RH  023%=      5-min Rain = 0
KHA3 212333Z 17008KT 38/13 A2989 RMK A01 T03800127  RH  022%=      5-min Rain = 0
KHA3 212334Z 17007KT 38/13 A2989 RMK A01 T03800128  RH  022%=      5-min Rain = 0
KHA3 212335Z 18008KT 38/13 A2989 RMK A01 T03800128  RH  022%=      5-min Rain = 0
KHA3 212336Z 18011KT 38/13 A2989 RMK A01 T03800128  RH  022%=      5-min Rain = 0
KHA3 212337Z 16010KT 38/13 A2989 RMK A01 T03790127  RH  022%=      5-min Rain = 0
KHA3 212338Z 14009KT 38/13 A2989 RMK A01 T03780128  RH  022%=      5-min Rain = 0
KHA3 212339Z 13009KT 38/12 A2989 RMK A01 T03780124  RH  022%=      5-min Rain = 0
KHA3 212340Z 13009KT 38/13 A2989 RMK A01 T03760125  RH  022%=      5-min Rain = 0
KHA3 212341Z 14008KT 38/13 A2989 RMK A01 T03760129  RH  023%=      5-min Rain = 0
KHA3 212342Z 16010KT 38/13 A2989 RMK A01 T03780133  RH  023%=      5-min Rain = 0
KHA3 212343Z 16012KT 38/13 A2989 RMK A01 T03790129  RH  023%=      5-min Rain = 0
KHA3 212344Z 17011KT 38/13 A2989 RMK A01 T03770128  RH  023%=      5-min Rain = 0
KHA3 212345Z 15012KT 38/13 A2989 RMK A01 T03770130  RH  023%=      5-min Rain = 0
KHA3 212346Z 15010KT 38/13 A2989 RMK A01 T03760127  RH  023%=      5-min Rain = 0
KHA3 212347Z 17012KT 38/13 A2989 RMK A01 T03760127  RH  023%=      5-min Rain = 0
KHA3 212348Z 16011KT 38/12 A2989 RMK A01 T03750123  RH  022%=      5-min Rain = 0
KHA3 212349Z 16011KT 37/13 A2989 RMK A01 T03740125  RH  023%=      5-min Rain = 0
KHA3 212350Z 16009KT 37/13 A2989 RMK A01 T03740128  RH  023%=      5-min Rain = 0
KHA3 212351Z 15012KT 38/13 A2989 RMK A01 T03750128  RH  023%=      5-min Rain = 0
KHA3 212352Z 15011KT 38/13 A2989 RMK A01 T03750126  RH  023%=      5-min Rain = 0
KHA3 212353Z 15012KT 37/13 A2989 RMK A01 T03740126  RH  023%=      5-min Rain = 0
KHA3 212354Z 15010KT 37/13 A2989 RMK A01 T03740126  RH  023%=      5-min Rain = 0
KHA3 212355Z 14011KT 37/13 A2989 RMK A01 T03730125  RH  023%=      5-min Rain = 0
KHA3 212356Z 14009KT 37/13 A2989 RMK A01 T03720125  RH  023%=      5-min Rain = 0
KHA3 212357Z 14008KT 37/13 A2989 RMK A01 T03720126  RH  023%=      5-min Rain = 0
KHA3 212358Z 14011KT 37/13 A2989 RMK A01 T03720125  RH  023%=      5-min Rain = 0
KHA3 212359Z 13009KT 37/12 A2989 RMK A01 T03720124  RH  023%=      5-min Rain = 0
KHA3 220000Z 14008KT 37/13 A2989 RMK A01 T03710125  RH  023%=      5-min Rain = 0
KHA3 220001Z 15009KT 37/13 A2989 RMK A01 T03710125  RH  023%=      5-min Rain = 0
KHA3 220002Z 14011KT 37/13 A2989 RMK A01 T03710126  RH  023%=      5-min Rain = 0
KHA3 220003Z 15012KT 37/13 A2989 RMK A01 T03710126  RH  023%=      5-min Rain = 0
KHA3 220004Z 16011KT 37/13 A2989 RMK A01 T03710128  RH  023%=      5-min Rain = 0
KHA3 220005Z 16011KT 37/13 A2989 RMK A01 T03720129  RH  024%=      5-min Rain = 0
KHA3 220006Z 15009KT 37/12 A2989 RMK A01 T03720124  RH  023%=      5-min Rain = 0
KHA3 220007Z 16008KT 37/13 A2989 RMK A01 T03710127  RH  023%=      5-min Rain = 0
KHA3 220008Z 14009KT 37/13 A2989 RMK A01 T03710129  RH  024%=      5-min Rain = 0
KHA3 220009Z 14008KT 37/13 A2989 RMK A01 T03710126  RH  023%=      5-min Rain = 0
KHA3 220010Z 14007KT 37/13 A2989 RMK A01 T03710127  RH  023%=      5-min Rain = 0
KHA3 220011Z 13010KT 37/13 A2989 RMK A01 T03710127  RH  023%=      5-min Rain = 0
KHA3 220012Z 12011KT 37/12 A2989 RMK A01 T03710122  RH  023%=      5-min Rain = 0
KHA3 220013Z 13011KT 37/12 A2989 RMK A01 T03700123  RH  023%=      5-min Rain = 0
KHA3 220014Z 13010KT 37/13 A2989 RMK A01 T03700125  RH  023%=      5-min Rain = 0
KHA3 220015Z 14010KT 37/12 A2989 RMK A01 T03700124  RH  023%=      5-min Rain = 0
KHA3 220016Z 14010KT 37/12 A2989 RMK A01 T03690123  RH  023%=      5-min Rain = 0
KHA3 220017Z 14009KT 37/12 A299 RMK A01 T03690124  RH  023%=      5-min Rain = 0
KHA3 220018Z 15010KT 37/13 A299 RMK A01 T03690127  RH  024%=      5-min Rain = 0
KHA3 220019Z 14008KT 37/13 A299 RMK A01 T03680128  RH  024%=      5-min Rain = 0
KHA3 220020Z 14008KT 37/13 A299 RMK A01 T03680128  RH  024%=      5-min Rain = 0
KHA3 220021Z 14007KT 37/13 A299 RMK A01 T03680130  RH  024%=      5-min Rain = 0
KHA3 220022Z 14008KT 37/13 A299 RMK A01 T03680132  RH  024%=      5-min Rain = 0
KHA3 220023Z 15010KT 37/13 A299 RMK A01 T03680130  RH  024%=      5-min Rain = 0
KHA3 220024Z 14008KT 37/13 A299 RMK A01 T03680133  RH  024%=      5-min Rain = 0
KHA3 220025Z 13008KT 37/13 A299 RMK A01 T03680132  RH  024%=      5-min Rain = 0
KHA3 220026Z 14007KT 37/13 A299 RMK A01 T03680132  RH  024%=      5-min Rain = 0
KHA3 220027Z 15007KT 37/13 A299 RMK A01 T03670134  RH  025%=      5-min Rain = 0
KHA3 220028Z 15006KT 37/14 A299 RMK A01 T03670135  RH  025%=      5-min Rain = 0
KHA3 220029Z 15010KT 37/14 A299 RMK A01 T03670135  RH  025%=      5-min Rain = 0
KHA3 220030Z 15009KT 37/14 A299 RMK A01 T03660135  RH  025%=      5-min Rain = 0
KHA3 220031Z 15011KT 37/13 A299 RMK A01 T03660134  RH  025%=      5-min Rain = 0
KHA3 220032Z 15011KT 37/13 A299 RMK A01 T03660133  RH  025%=      5-min Rain = 0
KHA3 220033Z 15010KT 37/13 A299 RMK A01 T03650130  RH  024%=      5-min Rain = 0
KHA3 220034Z 15009KT 37/13 A299 RMK A01 T03650131  RH  025%=      5-min Rain = 0
KHA3 220035Z 14009KT 36/13 A299 RMK A01 T03640131  RH  025%=      5-min Rain = 0
KHA3 220036Z 14007KT 36/13 A299 RMK A01 T03640133  RH  025%=      5-min Rain = 0
KHA3 220037Z 14009KT 36/13 A299 RMK A01 T03640134  RH  025%=      5-min Rain = 0
KHA3 220038Z 14008KT 36/13 A299 RMK A01 T03630131  RH  025%=      5-min Rain = 0
KHA3 220039Z 13006KT 36/13 A299 RMK A01 T03630134  RH  025%=      5-min Rain = 0
KHA3 220040Z 13009KT 36/14 A299 RMK A01 T03630136  RH  026%=      5-min Rain = 0
KHA3 220041Z 14008KT 36/14 A299 RMK A01 T03620135  RH  026%=      5-min Rain = 0
KHA3 220042Z 13008KT 36/13 A299 RMK A01 T03620134  RH  026%=      5-min Rain = 0
KHA3 220043Z 13007KT 36/13 A299 RMK A01 T03620134  RH  026%=      5-min Rain = 0
KHA3 220044Z 12007KT 36/14 A299 RMK A01 T03610137  RH  026%=      5-min Rain = 0
KHA3 220045Z 12009KT 36/13 A299 RMK A01 T03610133  RH  026%=      5-min Rain = 0
KHA3 220046Z 12010KT 36/13 A299 RMK A01 T03600130  RH  025%=      5-min Rain = 0
KHA3 220047Z 13010KT 36/13 A2991 RMK A01 T03600130  RH  025%=      5-min Rain = 0
KHA3 220048Z 12008KT 36/13 A2991 RMK A01 T03600131  RH  025%=      5-min Rain = 0
KHA3 220049Z 12008KT 36/13 A2991 RMK A01 T03600133  RH  026%=      5-min Rain = 0
KHA3 220050Z 12008KT 36/13 A2991 RMK A01 T03590131  RH  026%=      5-min Rain = 0
KHA3 220051Z 12010KT 36/13 A2991 RMK A01 T03590132  RH  026%=      5-min Rain = 0
KHA3 220052Z 12009KT 36/13 A2991 RMK A01 T03580131  RH  026%=      5-min Rain = 0
KHA3 220053Z 13009KT 36/13 A2991 RMK A01 T03580131  RH  026%=      5-min Rain = 0
KHA3 220054Z 13008KT 36/13 A2991 RMK A01 T03580131  RH  026%=      5-min Rain = 0
KHA3 220055Z 13008KT 36/13 A2991 RMK A01 T03580133  RH  026%=      5-min Rain = 0
KHA3 220056Z 13007KT 36/13 A2991 RMK A01 T03570134  RH  026%=      5-min Rain = 0
KHA3 220057Z 13007KT 36/14 A2991 RMK A01 T03560137  RH  027%=      5-min Rain = 0
KHA3 220058Z 12008KT 36/14 A2991 RMK A01 T03550136  RH  027%=      5-min Rain = 0
KHA3 220059Z 13009KT 36/13 A2991 RMK A01 T03550134  RH  027%=      5-min Rain = 0
KHA3 220100Z 12008KT 36/14 A2991 RMK A01 T03550135  RH  027%=      5-min Rain = 0
KHA3 220101Z 12007KT 35/14 A2991 RMK A01 T03540136  RH  027%=      5-min Rain = 0
KHA3 220102Z 12007KT 35/14 A2991 RMK A01 T03530137  RH  027%=      5-min Rain = 0
KHA3 220103Z 12008KT 35/14 A2991 RMK A01 T03520138  RH  028%=      5-min Rain = 0
KHA3 220104Z 12008KT 35/14 A2991 RMK A01 T03510137  RH  028%=      5-min Rain = 0
KHA3 220105Z 12008KT 35/14 A2991 RMK A01 T03510137  RH  028%=      5-min Rain = 0
KHA3 220106Z 11007KT 35/14 A2991 RMK A01 T03500139  RH  028%=      5-min Rain = 0
KHA3 220107Z 12007KT 35/14 A2991 RMK A01 T03490139  RH  028%=      5-min Rain = 0
KHA3 220108Z 12007KT 35/14 A2991 RMK A01 T03480140  RH  029%=      5-min Rain = 0
KHA3 220109Z 11008KT 35/14 A2991 RMK A01 T03470141  RH  029%=      5-min Rain = 0
KHA3 220110Z 12009KT 35/14 A2991 RMK A01 T03460142  RH  029%=      5-min Rain = 0
KHA3 220111Z 11009KT 35/14 A2991 RMK A01 T03450143  RH  030%=      5-min Rain = 0
KHA3 220112Z 12009KT 35/14 A2991 RMK A01 T03450143  RH  030%=      5-min Rain = 0
KHA3 220113Z 12010KT 35/14 A2991 RMK A01 T03450144  RH  030%=      5-min Rain = 0
KHA3 220114Z 12010KT 35/14 A2992 RMK A01 T03460144  RH  030%=      5-min Rain = 0
KHA3 220115Z 12009KT 35/15 A2992 RMK A01 T03450145  RH  030%=      5-min Rain = 0
KHA3 220116Z 12009KT 35/15 A2992 RMK A01 T03450146  RH  030%=      5-min Rain = 0
KHA3 220117Z 12009KT 34/15 A2992 RMK A01 T03440147  RH  031%=      5-min Rain = 0
KHA3 220118Z 12008KT 34/15 A2992 RMK A01 T03430147  RH  031%=      5-min Rain = 0
KHA3 220119Z 12008KT 34/15 A2992 RMK A01 T03420147  RH  031%=      5-min Rain = 0
KHA3 220120Z 12010KT 34/15 A2992 RMK A01 T03410148  RH  031%=      5-min Rain = 0
KHA3 220121Z 12009KT 34/15 A2992 RMK A01 T03410147  RH  031%=      5-min Rain = 0
KHA3 220122Z 12011KT 34/15 A2992 RMK A01 T03400148  RH  032%=      5-min Rain = 0
KHA3 220123Z 12010KT 34/15 A2992 RMK A01 T03400147  RH  031%=      5-min Rain = 0
KHA3 220124Z 12008KT 34/15 A2992 RMK A01 T03400148  RH  032%=      5-min Rain = 0
KHA3 220125Z 12010KT 34/15 A2992 RMK A01 T03390148  RH  032%=      5-min Rain = 0
KHA3 220126Z 12009KT 34/15 A2992 RMK A01 T03380148  RH  032%=      5-min Rain = 0
KHA3 220127Z 12009KT 34/15 A2992 RMK A01 T03380149  RH  032%=      5-min Rain = 0
KHA3 220128Z 12008KT 34/15 A2992 RMK A01 T03380149  RH  032%=      5-min Rain = 0
KHA3 220129Z 12009KT 34/15 A2992 RMK A01 T03370148  RH  032%=      5-min Rain = 0
KHA3 220130Z 12009KT 34/15 A2992 RMK A01 T03360148  RH  032%=      5-min Rain = 0
KHA3 220131Z 12009KT 34/15 A2992 RMK A01 T03370148  RH  032%=      5-min Rain = 0
KHA3 220132Z 12009KT 34/15 A2992 RMK A01 T03370148  RH  032%=      5-min Rain = 0
KHA3 220133Z 12008KT 34/15 A2992 RMK A01 T03360149  RH  032%=      5-min Rain = 0
KHA3 220134Z 12009KT 33/15 A2992 RMK A01 T03340148  RH  033%=      5-min Rain = 0
KHA3 220135Z 12010KT 33/15 A2992 RMK A01 T03340148  RH  033%=      5-min Rain = 0
KHA3 220136Z 12008KT 33/15 A2992 RMK A01 T03340148  RH  033%=      5-min Rain = 0
KHA3 220137Z 12009KT 33/15 A2992 RMK A01 T03340149  RH  033%=      5-min Rain = 0
KHA3 220138Z 12009KT 33/15 A2992 RMK A01 T03330149  RH  033%=      5-min Rain = 0
KHA3 220139Z 12009KT 33/15 A2993 RMK A01 T03320149  RH  033%=      5-min Rain = 0
KHA3 220140Z 12009KT 33/15 A2993 RMK A01 T03320149  RH  033%=      5-min Rain = 0
KHA3 220141Z 12009KT 33/15 A2993 RMK A01 T03310149  RH  034%=      5-min Rain = 0
KHA3 220142Z 12009KT 33/15 A2993 RMK A01 T03300149  RH  034%=      5-min Rain = 0
KHA3 220143Z 12009KT 33/15 A2993 RMK A01 T03290149  RH  034%=      5-min Rain = 0
KHA3 220144Z 12010KT 33/15 A2993 RMK A01 T03290150  RH  034%=      5-min Rain = 0
KHA3 220145Z 12010KT 33/15 A2993 RMK A01 T03280149  RH  034%=      5-min Rain = 0
KHA3 220146Z 12009KT 33/15 A2993 RMK A01 T03280150  RH  034%=      5-min Rain = 0
KHA3 220147Z 12009KT 33/15 A2993 RMK A01 T03270149  RH  034%=      5-min Rain = 0
KHA3 220148Z 12009KT 33/15 A2993 RMK A01 T03270149  RH  034%=      5-min Rain = 0
KHA3 220149Z 12010KT 33/15 A2993 RMK A01 T03270149  RH  034%=      5-min Rain = 0
KHA3 220150Z 13009KT 33/15 A2993 RMK A01 T03270149  RH  034%=      5-min Rain = 0
KHA3 220151Z 12009KT 33/15 A2993 RMK A01 T03270149  RH  034%=      5-min Rain = 0
KHA3 220152Z 13009KT 33/15 A2993 RMK A01 T03260149  RH  034%=      5-min Rain = 0
KHA3 220153Z 12009KT 33/15 A2993 RMK A01 T03260149  RH  035%=      5-min Rain = 0
KHA3 220154Z 12009KT 33/15 A2993 RMK A01 T03250149  RH  035%=      5-min Rain = 0
KHA3 220155Z 12009KT 32/15 A2993 RMK A01 T03240149  RH  035%=      5-min Rain = 0
KHA3 220156Z 12009KT 32/15 A2993 RMK A01 T03240149  RH  035%=      5-min Rain = 0
KHA3 220157Z 12008KT 32/15 A2993 RMK A01 T03240150  RH  035%=      5-min Rain = 0
KHA3 220158Z 12009KT 32/15 A2993 RMK A01 T03230150  RH  035%=      5-min Rain = 0
KHA3 220159Z 12008KT 32/15 A2993 RMK A01 T03220150  RH  035%=      5-min Rain = 0
KHA3 220200Z 13008KT 32/15 A2993 RMK A01 T03220150  RH  036%=      5-min Rain = 0
KHA3 220201Z 12009KT 32/15 A2993 RMK A01 T03200150  RH  036%=      5-min Rain = 0
KHA3 220202Z 12009KT 32/15 A2993 RMK A01 T03200150  RH  036%=      5-min Rain = 0
KHA3 220203Z 13008KT 32/15 A2993 RMK A01 T03200150  RH  036%=      5-min Rain = 0
KHA3 220204Z 13008KT 32/15 A2993 RMK A01 T03180150  RH  036%=      5-min Rain = 0
KHA3 220205Z 13009KT 32/15 A2993 RMK A01 T03180150  RH  036%=      5-min Rain = 0
KHA3 220206Z 13009KT 32/15 A2993 RMK A01 T03180150  RH  036%=      5-min Rain = 0
KHA3 220207Z 13008KT 32/15 A2993 RMK A01 T03180150  RH  036%=      5-min Rain = 0
KHA3 220208Z 13009KT 32/15 A2993 RMK A01 T03190150  RH  036%=      5-min Rain = 0
KHA3 220209Z 13009KT 32/15 A2993 RMK A01 T03190150  RH  036%=      5-min Rain = 0
KHA3 220210Z 13009KT 32/15 A2993 RMK A01 T03190150  RH  036%=      5-min Rain = 0
KHA3 220211Z 13008KT 32/15 A2993 RMK A01 T03180150  RH  036%=      5-min Rain = 0
KHA3 220212Z 13008KT 32/15 A2993 RMK A01 T03180150  RH  036%=      5-min Rain = 0
KHA3 220213Z 14009KT 32/15 A2993 RMK A01 T03180150  RH  036%=      5-min Rain = 0
KHA3 220214Z 13009KT 32/15 A2993 RMK A01 T03180150  RH  036%=      5-min Rain = 0
KHA3 220215Z 14008KT 32/15 A2993 RMK A01 T03170150  RH  036%=      5-min Rain = 0
KHA3 220216Z 13008KT 32/15 A2993 RMK A01 T03170150  RH  037%=      5-min Rain = 0
KHA3 220217Z 14007KT 32/15 A2994 RMK A01 T03160151  RH  037%=      5-min Rain = 0
KHA3 220218Z 14009KT 32/15 A2993 RMK A01 T03150151  RH  037%=      5-min Rain = 0
KHA3 220219Z 13009KT 31/15 A2993 RMK A01 T03140150  RH  037%=      5-min Rain = 0
KHA3 220220Z 14008KT 31/15 A2993 RMK A01 T03140150  RH  037%=      5-min Rain = 0
KHA3 220221Z 14009KT 31/15 A2994 RMK A01 T03140150  RH  037%=      5-min Rain = 0
KHA3 220222Z 14009KT 31/15 A2994 RMK A01 T03140150  RH  037%=      5-min Rain = 0
KHA3 220223Z 14008KT 31/15 A2994 RMK A01 T03130150  RH  037%=      5-min Rain = 0
KHA3 220224Z 14009KT 31/15 A2994 RMK A01 T03130150  RH  037%=      5-min Rain = 0
KHA3 220225Z 14008KT 31/15 A2994 RMK A01 T03130150  RH  037%=      5-min Rain = 0
KHA3 220226Z 14009KT 31/15 A2994 RMK A01 T03130150  RH  037%=      5-min Rain = 0
KHA3 220227Z 14009KT 31/15 A2994 RMK A01 T03130149  RH  037%=      5-min Rain = 0
KHA3 220228Z 14009KT 31/15 A2994 RMK A01 T03130150  RH  037%=      5-min Rain = 0
KHA3 220229Z 14009KT 31/15 A2994 RMK A01 T03130149  RH  037%=      5-min Rain = 0
KHA3 220230Z 14009KT 31/15 A2994 RMK A01 T03130150  RH  037%=      5-min Rain = 0
KHA3 220231Z 14008KT 31/15 A2994 RMK A01 T03130150  RH  037%=      5-min Rain = 0
KHA3 220232Z 13010KT 31/15 A2994 RMK A01 T03120150  RH  038%=      5-min Rain = 0
KHA3 220233Z 13009KT 31/15 A2994 RMK A01 T03110150  RH  038%=      5-min Rain = 0
KHA3 220234Z 14009KT 31/15 A2994 RMK A01 T03120150  RH  038%=      5-min Rain = 0
KHA3 220235Z 13008KT 31/15 A2994 RMK A01 T03120150  RH  038%=      5-min Rain = 0
KHA3 220236Z 13009KT 31/15 A2994 RMK A01 T03110150  RH  038%=      5-min Rain = 0
KHA3 220237Z 13009KT 31/15 A2994 RMK A01 T03120150  RH  038%=      5-min Rain = 0
KHA3 220238Z 14009KT 31/15 A2994 RMK A01 T03110151  RH  038%=      5-min Rain = 0
KHA3 220239Z 13008KT 31/15 A2994 RMK A01 T03120151  RH  038%=      5-min Rain = 0
KHA3 220240Z 14009KT 31/15 A2994 RMK A01 T03110151  RH  038%=      5-min Rain = 0
KHA3 220241Z 14009KT 31/15 A2994 RMK A01 T03100151  RH  038%=      5-min Rain = 0
KHA3 220242Z 13008KT 31/15 A2994 RMK A01 T03100151  RH  038%=      5-min Rain = 0
KHA3 220243Z 14009KT 31/15 A2994 RMK A01 T03100151  RH  038%=      5-min Rain = 0
KHA3 220244Z 13009KT 31/15 A2994 RMK A01 T03110151  RH  038%=      5-min Rain = 0
KHA3 220245Z 14009KT 31/15 A2994 RMK A01 T03100151  RH  038%=      5-min Rain = 0
KHA3 220246Z 14009KT 31/15 A2994 RMK A01 T03100152  RH  038%=      5-min Rain = 0
KHA3 220247Z 14009KT 31/15 A2994 RMK A01 T03100152  RH  038%=      5-min Rain = 0
KHA3 220248Z 14009KT 31/15 A2994 RMK A01 T03100152  RH  038%=      5-min Rain = 0
KHA3 220249Z 13009KT 31/15 A2994 RMK A01 T03090152  RH  039%=      5-min Rain = 0
KHA3 220250Z 14009KT 31/15 A2994 RMK A01 T03090152  RH  039%=      5-min Rain = 0
KHA3 220251Z 13009KT 31/15 A2994 RMK A01 T03080152  RH  039%=      5-min Rain = 0
KHA3 220252Z 13009KT 31/15 A2994 RMK A01 T03080152  RH  039%=      5-min Rain = 0
KHA3 220253Z 14008KT 31/15 A2995 RMK A01 T03080152  RH  039%=      5-min Rain = 0
KHA3 220254Z 13009KT 31/15 A2995 RMK A01 T03080152  RH  039%=      5-min Rain = 0
KHA3 220255Z 14009KT 31/15 A2995 RMK A01 T03080153  RH  039%=      5-min Rain = 0
KHA3 220256Z 14008KT 31/15 A2995 RMK A01 T03070153  RH  039%=      5-min Rain = 0
KHA3 220257Z 13009KT 31/15 A2995 RMK A01 T03070153  RH  039%=      5-min Rain = 0
KHA3 220258Z 14009KT 31/15 A2995 RMK A01 T03070153  RH  039%=      5-min Rain = 0
KHA3 220259Z 14009KT 31/15 A2995 RMK A01 T03060153  RH  039%=      5-min Rain = 0
KHA3 220300Z 14009KT 31/15 A2995 RMK A01 T03060153  RH  039%=      5-min Rain = 0
KHA3 220301Z 13009KT 31/15 A2995 RMK A01 T03060153  RH  040%=      5-min Rain = 0
KHA3 220302Z 14009KT 31/15 A2995 RMK A01 T03060153  RH  040%=      5-min Rain = 0
KHA3 220303Z 13009KT 31/15 A2995 RMK A01 T03060154  RH  040%=      5-min Rain = 0
KHA3 220304Z 14009KT 31/15 A2995 RMK A01 T03050153  RH  040%=      5-min Rain = 0
KHA3 220305Z 13010KT 31/15 A2995 RMK A01 T03050154  RH  040%=      5-min Rain = 0
KHA3 220306Z 13009KT 31/15 A2995 RMK A01 T03050154  RH  040%=      5-min Rain = 0
KHA3 220307Z 13009KT 31/15 A2995 RMK A01 T03050154  RH  040%=      5-min Rain = 0
KHA3 220308Z 14009KT 31/15 A2995 RMK A01 T03050154  RH  040%=      5-min Rain = 0
KHA3 220309Z 14008KT 30/15 A2995 RMK A01 T03040154  RH  040%=      5-min Rain = 0
KHA3 220310Z 14009KT 30/15 A2996 RMK A01 T03040154  RH  040%=      5-min Rain = 0
KHA3 220311Z 13009KT 30/15 A2996 RMK A01 T03040154  RH  040%=      5-min Rain = 0
KHA3 220312Z 13008KT 30/16 A2996 RMK A01 T03030155  RH  041%=      5-min Rain = 0
KHA3 220313Z 14009KT 30/15 A2996 RMK A01 T03030154  RH  041%=      5-min Rain = 0
KHA3 220314Z 14009KT 30/16 A2996 RMK A01 T03030155  RH  041%=      5-min Rain = 0
KHA3 220315Z 14009KT 30/16 A2996 RMK A01 T03030155  RH  041%=      5-min Rain = 0
KHA3 220316Z 13009KT 30/16 A2996 RMK A01 T03020155  RH  041%=      5-min Rain = 0
KHA3 220317Z 14009KT 30/16 A2996 RMK A01 T03010155  RH  041%=      5-min Rain = 0
KHA3 220318Z 14009KT 30/15 A2996 RMK A01 T03010154  RH  041%=      5-min Rain = 0
KHA3 220319Z 14009KT 30/15 A2996 RMK A01 T03010154  RH  041%=      5-min Rain = 0
KHA3 220320Z 13009KT 30/16 A2996 RMK A01 T03020155  RH  041%=      5-min Rain = 0
KHA3 220321Z 14008KT 30/16 A2996 RMK A01 T03020155  RH  041%=      5-min Rain = 0
KHA3 220322Z 14008KT 30/16 A2996 RMK A01 T03020155  RH  041%=      5-min Rain = 0
KHA3 220323Z 13008KT 30/16 A2996 RMK A01 T03010155  RH  041%=      5-min Rain = 0
KHA3 220324Z 13009KT 30/16 A2996 RMK A01 T03000155  RH  041%=      5-min Rain = 0
KHA3 220325Z 14009KT 30/16 A2996 RMK A01 T03000155  RH  041%=      5-min Rain = 0
KHA3 220326Z 14009KT 30/16 A2996 RMK A01 T03000155  RH  041%=      5-min Rain = 0
KHA3 220327Z 14008KT 30/16 A2996 RMK A01 T03000155  RH  041%=      5-min Rain = 0
KHA3 220328Z 14008KT 30/16 A2996 RMK A01 T03000155  RH  042%=      5-min Rain = 0
KHA3 220329Z 13009KT 30/16 A2996 RMK A01 T02990155  RH  042%=      5-min Rain = 0
KHA3 220330Z 14008KT 30/16 A2996 RMK A01 T02990155  RH  042%=      5-min Rain = 0
KHA3 220331Z 13008KT 30/16 A2996 RMK A01 T02990155  RH  042%=      5-min Rain = 0
KHA3 220332Z 13009KT 30/16 A2996 RMK A01 T02990155  RH  042%=      5-min Rain = 0
KHA3 220333Z 13008KT 30/16 A2996 RMK A01 T02990155  RH  042%=      5-min Rain = 0
KHA3 220334Z 13009KT 30/16 A2996 RMK A01 T02990155  RH  042%=      5-min Rain = 0
KHA3 220335Z 13009KT 30/16 A2996 RMK A01 T02990155  RH  042%=      5-min Rain = 0
KHA3 220336Z 13009KT 30/16 A2996 RMK A01 T02990155  RH  042%=      5-min Rain = 0
KHA3 220337Z 14009KT 30/16 A2996 RMK A01 T02980155  RH  042%=      5-min Rain = 0
KHA3 220338Z 14009KT 30/16 A2996 RMK A01 T02990155  RH  042%=      5-min Rain = 0
KHA3 220339Z 14010KT 30/16 A2996 RMK A01 T03000155  RH  041%=      5-min Rain = 0
KHA3 220340Z 13009KT 30/16 A2996 RMK A01 T03000155  RH  041%=      5-min Rain = 0
KHA3 220341Z 14009KT 30/16 A2996 RMK A01 T03000155  RH  041%=      5-min Rain = 0
KHA3 220342Z 14010KT 30/16 A2997 RMK A01 T03000155  RH  042%=      5-min Rain = 0
KHA3 220343Z 14009KT 30/16 A2997 RMK A01 T02990155  RH  042%=      5-min Rain = 0
KHA3 220344Z 14009KT 30/16 A2997 RMK A01 T02990155  RH  042%=      5-min Rain = 0
KHA3 220345Z 14010KT 30/16 A2997 RMK A01 T02990155  RH  042%=      5-min Rain = 0
KHA3 220346Z 14009KT 30/16 A2997 RMK A01 T02990155  RH  042%=      5-min Rain = 0
KHA3 220347Z 14010KT 30/16 A2997 RMK A01 T02990155  RH  042%=      5-min Rain = 0
KHA3 220348Z 14009KT 30/16 A2997 RMK A01 T02990155  RH  042%=      5-min Rain = 0
KHA3 220349Z 14010KT 30/16 A2997 RMK A01 T02980155  RH  042%=      5-min Rain = 0
KHA3 220350Z 14009KT 30/16 A2997 RMK A01 T02980155  RH  042%=      5-min Rain = 0
KHA3 220351Z 14010KT 30/16 A2997 RMK A01 T02980155  RH  042%=      5-min Rain = 0
KHA3 220352Z 14010KT 30/16 A2997 RMK A01 T02980155  RH  042%=      5-min Rain = 0
KHA3 220353Z 14009KT 30/16 A2997 RMK A01 T02980155  RH  042%=      5-min Rain = 0
KHA3 220354Z 14010KT 30/16 A2997 RMK A01 T02990155  RH  042%=      5-min Rain = 0
KHA3 220355Z 13009KT 30/16 A2997 RMK A01 T02990155  RH  042%=      5-min Rain = 0
KHA3 220356Z 14010KT 30/16 A2997 RMK A01 T02980155  RH  042%=      5-min Rain = 0
KHA3 220357Z 14009KT 30/16 A2997 RMK A01 T02980155  RH  042%=      5-min Rain = 0
KHA3 220358Z 14008KT 30/16 A2997 RMK A01 T02980155  RH  042%=      5-min Rain = 0
KHA3 220359Z 14009KT 30/16 A2997 RMK A01 T02990155  RH  042%=      5-min Rain = 0
KHA3 220400Z 14010KT 30/16 A2997 RMK A01 T02980155  RH  042%=      5-min Rain = 0
KHA3 220401Z 14010KT 30/16 A2997 RMK A01 T02980155  RH  042%=      5-min Rain = 0
KHA3 220402Z 14009KT 30/16 A2997 RMK A01 T02990155  RH  042%=      5-min Rain = 0
KHA3 220403Z 14009KT 30/16 A2997 RMK A01 T02990155  RH  042%=      5-min Rain = 0
KHA3 220404Z 14011KT 30/16 A2997 RMK A01 T02990155  RH  042%=      5-min Rain = 0
KHA3 220405Z 14010KT 30/16 A2997 RMK A01 T02990155  RH  042%=      5-min Rain = 0
KHA3 220406Z 14010KT 30/16 A2997 RMK A01 T02990156  RH  042%=      5-min Rain = 0
KHA3 220407Z 14010KT 30/16 A2997 RMK A01 T02980155  RH  042%=      5-min Rain = 0
KHA3 220408Z 14011KT 30/16 A2997 RMK A01 T02990155  RH  042%=      5-min Rain = 0
KHA3 220409Z 14010KT 30/16 A2997 RMK A01 T02980155  RH  042%=      5-min Rain = 0
KHA3 220410Z 14011KT 30/16 A2997 RMK A01 T02990155  RH  042%=      5-min Rain = 0
KHA3 220411Z 14011KT 30/16 A2997 RMK A01 T02990155  RH  042%=      5-min Rain = 0
KHA3 220412Z 14011KT 30/16 A2997 RMK A01 T02980155  RH  042%=      5-min Rain = 0
KHA3 220413Z 14012KT 30/16 A2997 RMK A01 T02990155  RH  042%=      5-min Rain = 0
KHA3 220414Z 14010KT 30/16 A2997 RMK A01 T02980155  RH  042%=      5-min Rain = 0
KHA3 220415Z 14011KT 30/16 A2997 RMK A01 T02990155  RH  042%=      5-min Rain = 0
KHA3 220416Z 14011KT 30/16 A2997 RMK A01 T02980156  RH  042%=      5-min Rain = 0
KHA3 220417Z 14011KT 30/16 A2997 RMK A01 T02980155  RH  042%=      5-min Rain = 0
KHA3 220418Z 14011KT 30/16 A2997 RMK A01 T02990155  RH  042%=      5-min Rain = 0
KHA3 220419Z 14011KT 30/16 A2997 RMK A01 T02990156  RH  042%=      5-min Rain = 0
KHA3 220420Z 14011KT 30/16 A2997 RMK A01 T02990155  RH  042%=      5-min Rain = 0
KHA3 220421Z 14010KT 30/16 A2997 RMK A01 T02990155  RH  042%=      5-min Rain = 0
KHA3 220422Z 14011KT 30/16 A2997 RMK A01 T02990155  RH  042%=      5-min Rain = 0
KHA3 220423Z 14010KT 30/16 A2997 RMK A01 T02990155  RH  042%=      5-min Rain = 0
KHA3 220424Z 14010KT 30/16 A2997 RMK A01 T02990155  RH  042%=      5-min Rain = 0
KHA3 220425Z 14010KT 30/16 A2997 RMK A01 T02990155  RH  042%=      5-min Rain = 0
KHA3 220426Z 14010KT 30/16 A2997 RMK A01 T02980155  RH  042%=      5-min Rain = 0
KHA3 220427Z 14010KT 30/16 A2997 RMK A01 T02980155  RH  042%=      5-min Rain = 0
KHA3 220428Z 14010KT 30/16 A2997 RMK A01 T02980156  RH  042%=      5-min Rain = 0
KHA3 220429Z 14010KT 30/16 A2997 RMK A01 T02980155  RH  042%=      5-min Rain = 0
KHA3 220430Z 14010KT 30/16 A2997 RMK A01 T02970155  RH  042%=      5-min Rain = 0
KHA3 220431Z 14010KT 30/16 A2997 RMK A01 T02980155  RH  042%=      5-min Rain = 0
KHA3 220432Z 14010KT 30/16 A2997 RMK A01 T02970155  RH  042%=      5-min Rain = 0
KHA3 220433Z 14010KT 30/16 A2997 RMK A01 T02960155  RH  042%=      5-min Rain = 0
KHA3 220434Z 14009KT 30/16 A2997 RMK A01 T02960155  RH  042%=      5-min Rain = 0
KHA3 220435Z 14009KT 30/16 A2997 RMK A01 T02960155  RH  043%=      5-min Rain = 0
KHA3 220436Z 14009KT 30/16 A2997 RMK A01 T02950155  RH  043%=      5-min Rain = 0
KHA3 220437Z 14009KT 30/16 A2997 RMK A01 T02950155  RH  043%=      5-min Rain = 0
KHA3 220438Z 14009KT 30/16 A2997 RMK A01 T02950155  RH  043%=      5-min Rain = 0
KHA3 220439Z 15009KT 29/16 A2997 RMK A01 T02940155  RH  043%=      5-min Rain = 0
KHA3 220440Z 14008KT 29/16 A2997 RMK A01 T02940156  RH  043%=      5-min Rain = 0
KHA3 220441Z 14008KT 29/16 A2997 RMK A01 T02930156  RH  043%=      5-min Rain = 0
KHA3 220442Z 15008KT 29/16 A2997 RMK A01 T02920156  RH  044%=      5-min Rain = 0
KHA3 220443Z 14008KT 29/16 A2997 RMK A01 T02910156  RH  044%=      5-min Rain = 0
KHA3 220444Z 14008KT 29/16 A2997 RMK A01 T02900155  RH  044%=      5-min Rain = 0
KHA3 220445Z 14008KT 29/16 A2997 RMK A01 T02890156  RH  044%=      5-min Rain = 0
KHA3 220446Z 14009KT 29/16 A2997 RMK A01 T02890155  RH  044%=      5-min Rain = 0
KHA3 220447Z 14008KT 29/16 A2997 RMK A01 T02890155  RH  044%=      5-min Rain = 0
KHA3 220448Z 14008KT 29/16 A2997 RMK A01 T02900155  RH  044%=      5-min Rain = 0
KHA3 220449Z 14008KT 29/16 A2997 RMK A01 T02900155  RH  044%=      5-min Rain = 0
KHA3 220450Z 14009KT 29/16 A2997 RMK A01 T02910156  RH  044%=      5-min Rain = 0
KHA3 220451Z 14008KT 29/16 A2997 RMK A01 T02900156  RH  044%=      5-min Rain = 0
KHA3 220452Z 14009KT 29/16 A2997 RMK A01 T02890155  RH  044%=      5-min Rain = 0
KHA3 220453Z 14008KT 29/16 A2997 RMK A01 T02890156  RH  044%=      5-min Rain = 0
KHA3 220454Z 14009KT 29/16 A2997 RMK A01 T02880156  RH  045%=      5-min Rain = 0
KHA3 220455Z 14009KT 29/16 A2997 RMK A01 T02870156  RH  045%=      5-min Rain = 0
KHA3 220456Z 14009KT 29/16 A2997 RMK A01 T02860155  RH  045%=      5-min Rain = 0
KHA3 220457Z 14008KT 29/16 A2997 RMK A01 T02860155  RH  045%=      5-min Rain = 0
KHA3 220458Z 14009KT 29/16 A2997 RMK A01 T02860155  RH  045%=      5-min Rain = 0
KHA3 220459Z 14008KT 29/16 A2997 RMK A01 T02860156  RH  045%=      5-min Rain = 0

Page generated in 0.1321 seconds.